<?xml version="1.0" encoding="UTF-8" standalone="no" ?>
<gpx xmlns="http://www.topografix.com/GPX/1/1" xmlns:xsi="http://www.w3.org/2001/XMLSchema-instance" xsi:schemaLocation="http://www.topografix.com/GPX/1/1 http://www.topografix.com/GPX/1/1/gpx.xsd" version="1.1" creator="VisuGPX - https://www.visugpx.com">
  <metadata>
    <name>préparation Cervin </name>
    <desc><![CDATA[préparation Cervin                                       ]]></desc>
  </metadata>
  <wpt lat="46.09978" lon="7.72975">
    <ele>3916.987793</ele>
    <name><![CDATA[WEISSFRUH]]></name>
    <desc><![CDATA[05-AUG-08 6:06:48]]></desc>
    <cmt><![CDATA[05-AUG-08 6:06:48]]></cmt>
  </wpt>
  <wpt lat="46.09176" lon="7.7334">
    <ele>3090.02002</ele>
    <name><![CDATA[WEISSHBE]]></name>
    <desc><![CDATA[04-AUG-08 9:35:22]]></desc>
    <cmt><![CDATA[04-AUG-08 9:35:22]]></cmt>
  </wpt>
  <wpt lat="46.09806" lon="7.73294">
    <ele>3568.75293</ele>
    <name><![CDATA[WEISSHBE2]]></name>
    <desc><![CDATA[04-AUG-08 11:21:57]]></desc>
    <cmt><![CDATA[04-AUG-08 11:21:57]]></cmt>
  </wpt>
  <wpt lat="46.10128" lon="7.71608">
    <ele>4511.318359</ele>
    <name><![CDATA[WEISSHORN]]></name>
    <desc><![CDATA[05-AUG-08 9:21:57]]></desc>
    <cmt><![CDATA[05-AUG-08 9:21:57]]></cmt>
  </wpt>
  <wpt lat="46.09149" lon="7.73791">
    <ele>3113</ele>
    <name><![CDATA[WEISSHRNGL]]></name>
    <desc><![CDATA[04-AUG-08 9:24:27]]></desc>
    <cmt><![CDATA[04-AUG-08 9:24:27]]></cmt>
  </wpt>
  <wpt lat="46.08599" lon="7.74374">
    <ele>2931.884277</ele>
    <name><![CDATA[WEISSHRNHT]]></name>
    <desc><![CDATA[03-AUG-08 17:21:36]]></desc>
    <cmt><![CDATA[03-AUG-08 17:21:36]]></cmt>
  </wpt>
  <wpt lat="46.09813" lon="7.73311">
    <ele>3577.164062</ele>
    <name><![CDATA[WP1050788]]></name>
    <desc><![CDATA[04-AUG-08 13:06:03]]></desc>
    <cmt><![CDATA[04-AUG-08 13:06:03]]></cmt>
  </wpt>
  <wpt lat="46.09118" lon="7.7368">
    <ele>3082.810059</ele>
    <name><![CDATA[WP1050789]]></name>
    <desc><![CDATA[04-AUG-08 14:06:23]]></desc>
    <cmt><![CDATA[04-AUG-08 14:06:23]]></cmt>
  </wpt>
  <trk>
    <name><![CDATA[Hörnlihütte on GPSies.com]]></name>
    <trkseg>
      <trkpt lat="46.01552" lon="7.74204">
        <ele>1630</ele>
        <time>2011-08-31T20:49:11Z</time>
      </trkpt>
      <trkpt lat="46.01513" lon="7.74128">
        <ele>1617</ele>
        <time>2011-08-31T20:49:37Z</time>
      </trkpt>
      <trkpt lat="46.01476" lon="7.74098">
        <ele>1626</ele>
        <time>2011-08-31T20:49:54Z</time>
      </trkpt>
      <trkpt lat="46.01389" lon="7.73998">
        <ele>1629</ele>
        <time>2011-08-31T20:50:39Z</time>
      </trkpt>
      <trkpt lat="46.01289" lon="7.7397">
        <ele>1622</ele>
        <time>2011-08-31T20:51:20Z</time>
      </trkpt>
      <trkpt lat="46.01219" lon="7.73875">
        <ele>1640</ele>
        <time>2011-08-31T20:51:58Z</time>
      </trkpt>
      <trkpt lat="46.01202" lon="7.73841">
        <ele>1640</ele>
        <time>2011-08-31T20:52:10Z</time>
      </trkpt>
      <trkpt lat="46.01202" lon="7.73792">
        <ele>1659</ele>
        <time>2011-08-31T20:52:24Z</time>
      </trkpt>
      <trkpt lat="46.01136" lon="7.73704">
        <ele>1683</ele>
        <time>2011-08-31T20:53:00Z</time>
      </trkpt>
      <trkpt lat="46.01108" lon="7.73577">
        <ele>1669</ele>
        <time>2011-08-31T20:53:37Z</time>
      </trkpt>
      <trkpt lat="46.01061" lon="7.73493">
        <ele>1698</ele>
        <time>2011-08-31T20:54:06Z</time>
      </trkpt>
      <trkpt lat="46.01" lon="7.73435">
        <ele>1698</ele>
        <time>2011-08-31T20:54:36Z</time>
      </trkpt>
      <trkpt lat="46.00968" lon="7.7335">
        <ele>1723</ele>
        <time>2011-08-31T20:55:03Z</time>
      </trkpt>
      <trkpt lat="46.00948" lon="7.73309">
        <ele>1698</ele>
        <time>2011-08-31T20:55:16Z</time>
      </trkpt>
      <trkpt lat="46.00954" lon="7.7321">
        <ele>1707</ele>
        <time>2011-08-31T20:55:44Z</time>
      </trkpt>
      <trkpt lat="46.00984" lon="7.73161">
        <ele>1746</ele>
        <time>2011-08-31T20:56:02Z</time>
      </trkpt>
      <trkpt lat="46.00914" lon="7.73098">
        <ele>1749</ele>
        <time>2011-08-31T20:56:35Z</time>
      </trkpt>
      <trkpt lat="46.00877" lon="7.73023">
        <ele>1783</ele>
        <time>2011-08-31T20:57:01Z</time>
      </trkpt>
      <trkpt lat="46.00842" lon="7.72944">
        <ele>1778</ele>
        <time>2011-08-31T20:57:27Z</time>
      </trkpt>
      <trkpt lat="46.00823" lon="7.72942">
        <ele>1778</ele>
        <time>2011-08-31T20:57:35Z</time>
      </trkpt>
      <trkpt lat="46.00777" lon="7.72886">
        <ele>1748</ele>
        <time>2011-08-31T20:57:59Z</time>
      </trkpt>
      <trkpt lat="46.00738" lon="7.72817">
        <ele>1782</ele>
        <time>2011-08-31T20:58:23Z</time>
      </trkpt>
      <trkpt lat="46.00719" lon="7.72777">
        <ele>1821</ele>
        <time>2011-08-31T20:58:37Z</time>
      </trkpt>
      <trkpt lat="46.00678" lon="7.72652">
        <ele>1806</ele>
        <time>2011-08-31T20:59:15Z</time>
      </trkpt>
      <trkpt lat="46.00595" lon="7.72519">
        <ele>1830</ele>
        <time>2011-08-31T21:00:05Z</time>
      </trkpt>
      <trkpt lat="46.00593" lon="7.72474">
        <ele>1830</ele>
        <time>2011-08-31T21:00:18Z</time>
      </trkpt>
      <trkpt lat="46.00564" lon="7.72423">
        <ele>1856</ele>
        <time>2011-08-31T21:00:36Z</time>
      </trkpt>
      <trkpt lat="46.00547" lon="7.7232">
        <ele>1878</ele>
        <time>2011-08-31T21:01:06Z</time>
      </trkpt>
      <trkpt lat="46.00555" lon="7.72221">
        <ele>1882</ele>
        <time>2011-08-31T21:01:33Z</time>
      </trkpt>
      <trkpt lat="46.00562" lon="7.72249">
        <ele>1882</ele>
        <time>2011-08-31T21:01:42Z</time>
      </trkpt>
      <trkpt lat="46.0057" lon="7.72302">
        <ele>1878</ele>
        <time>2011-08-31T21:01:57Z</time>
      </trkpt>
      <trkpt lat="46.00614" lon="7.7229">
        <ele>1882</ele>
        <time>2011-08-31T21:02:15Z</time>
      </trkpt>
      <trkpt lat="46.00644" lon="7.72232">
        <ele>1906</ele>
        <time>2011-08-31T21:02:35Z</time>
      </trkpt>
      <trkpt lat="46.00641" lon="7.72133">
        <ele>1909</ele>
        <time>2011-08-31T21:03:03Z</time>
      </trkpt>
      <trkpt lat="46.00634" lon="7.72056">
        <ele>1918</ele>
        <time>2011-08-31T21:03:24Z</time>
      </trkpt>
      <trkpt lat="46.00668" lon="7.71985">
        <ele>1913</ele>
        <time>2011-08-31T21:03:48Z</time>
      </trkpt>
      <trkpt lat="46.00671" lon="7.71882">
        <ele>1916</ele>
        <time>2011-08-31T21:04:17Z</time>
      </trkpt>
      <trkpt lat="46.00684" lon="7.71783">
        <ele>1930</ele>
        <time>2011-08-31T21:04:45Z</time>
      </trkpt>
      <trkpt lat="46.00675" lon="7.71729">
        <ele>1930</ele>
        <time>2011-08-31T21:05:00Z</time>
      </trkpt>
      <trkpt lat="46.00675" lon="7.71695">
        <ele>1936</ele>
        <time>2011-08-31T21:05:10Z</time>
      </trkpt>
      <trkpt lat="46.00753" lon="7.7168">
        <ele>1960</ele>
        <time>2011-08-31T21:05:41Z</time>
      </trkpt>
      <trkpt lat="46.00781" lon="7.71599">
        <ele>1961</ele>
        <time>2011-08-31T21:06:06Z</time>
      </trkpt>
      <trkpt lat="46.00781" lon="7.71573">
        <ele>1961</ele>
        <time>2011-08-31T21:06:14Z</time>
      </trkpt>
      <trkpt lat="46.00795" lon="7.71554">
        <ele>1999</ele>
        <time>2011-08-31T21:06:21Z</time>
      </trkpt>
      <trkpt lat="46.00811" lon="7.71502">
        <ele>2000</ele>
        <time>2011-08-31T21:06:37Z</time>
      </trkpt>
      <trkpt lat="46.00799" lon="7.71461">
        <ele>2000</ele>
        <time>2011-08-31T21:06:49Z</time>
      </trkpt>
      <trkpt lat="46.00813" lon="7.71388">
        <ele>2000</ele>
        <time>2011-08-31T21:07:10Z</time>
      </trkpt>
      <trkpt lat="46.00805" lon="7.71345">
        <ele>2000</ele>
        <time>2011-08-31T21:07:22Z</time>
      </trkpt>
      <trkpt lat="46.00817" lon="7.71324">
        <ele>2000</ele>
        <time>2011-08-31T21:07:30Z</time>
      </trkpt>
      <trkpt lat="46.00842" lon="7.71169">
        <ele>1985</ele>
        <time>2011-08-31T21:08:14Z</time>
      </trkpt>
      <trkpt lat="46.00835" lon="7.71096">
        <ele>1981</ele>
        <time>2011-08-31T21:08:35Z</time>
      </trkpt>
      <trkpt lat="46.00838" lon="7.71071">
        <ele>1981</ele>
        <time>2011-08-31T21:08:42Z</time>
      </trkpt>
      <trkpt lat="46.00841" lon="7.71032">
        <ele>1976</ele>
        <time>2011-08-31T21:08:53Z</time>
      </trkpt>
      <trkpt lat="46.00838" lon="7.71008">
        <ele>1976</ele>
        <time>2011-08-31T21:08:59Z</time>
      </trkpt>
      <trkpt lat="46.00774" lon="7.70953">
        <ele>1977</ele>
        <time>2011-08-31T21:09:29Z</time>
      </trkpt>
      <trkpt lat="46.00738" lon="7.70955">
        <ele>1977</ele>
        <time>2011-08-31T21:09:44Z</time>
      </trkpt>
      <trkpt lat="46.00745" lon="7.70916">
        <ele>1977</ele>
        <time>2011-08-31T21:09:55Z</time>
      </trkpt>
      <trkpt lat="46.00726" lon="7.70852">
        <ele>1973</ele>
        <time>2011-08-31T21:10:14Z</time>
      </trkpt>
      <trkpt lat="46.00701" lon="7.7086">
        <ele>2013</ele>
        <time>2011-08-31T21:10:25Z</time>
      </trkpt>
      <trkpt lat="46.00681" lon="7.70822">
        <ele>2013</ele>
        <time>2011-08-31T21:10:38Z</time>
      </trkpt>
      <trkpt lat="46.00623" lon="7.70845">
        <ele>2043</ele>
        <time>2011-08-31T21:11:02Z</time>
      </trkpt>
      <trkpt lat="46.00623" lon="7.70818">
        <ele>2043</ele>
        <time>2011-08-31T21:11:10Z</time>
      </trkpt>
      <trkpt lat="46.00599" lon="7.70822">
        <ele>2043</ele>
        <time>2011-08-31T21:11:20Z</time>
      </trkpt>
      <trkpt lat="46.00587" lon="7.70796">
        <ele>2043</ele>
        <time>2011-08-31T21:11:28Z</time>
      </trkpt>
      <trkpt lat="46.00584" lon="7.70687">
        <ele>2056</ele>
        <time>2011-08-31T21:11:59Z</time>
      </trkpt>
      <trkpt lat="46.00611" lon="7.70486">
        <ele>2076</ele>
        <time>2011-08-31T21:12:56Z</time>
      </trkpt>
      <trkpt lat="46.00628" lon="7.70467">
        <ele>2033</ele>
        <time>2011-08-31T21:13:04Z</time>
      </trkpt>
      <trkpt lat="46.00658" lon="7.70264">
        <ele>2059</ele>
        <time>2011-08-31T21:14:02Z</time>
      </trkpt>
      <trkpt lat="46.0067" lon="7.7023">
        <ele>2059</ele>
        <time>2011-08-31T21:14:13Z</time>
      </trkpt>
      <trkpt lat="46.00702" lon="7.70188">
        <ele>2084</ele>
        <time>2011-08-31T21:14:30Z</time>
      </trkpt>
      <trkpt lat="46.00737" lon="7.70018">
        <ele>2049</ele>
        <time>2011-08-31T21:15:19Z</time>
      </trkpt>
      <trkpt lat="46.00734" lon="7.69986">
        <ele>2049</ele>
        <time>2011-08-31T21:15:28Z</time>
      </trkpt>
      <trkpt lat="46.00705" lon="7.69859">
        <ele>2084</ele>
        <time>2011-08-31T21:16:05Z</time>
      </trkpt>
      <trkpt lat="46.00684" lon="7.69825">
        <ele>2084</ele>
        <time>2011-08-31T21:16:18Z</time>
      </trkpt>
      <trkpt lat="46.0067" lon="7.69726">
        <ele>2080</ele>
        <time>2011-08-31T21:16:46Z</time>
      </trkpt>
      <trkpt lat="46.00676" lon="7.69702">
        <ele>2075</ele>
        <time>2011-08-31T21:16:53Z</time>
      </trkpt>
      <trkpt lat="46.00649" lon="7.69676">
        <ele>2075</ele>
        <time>2011-08-31T21:17:06Z</time>
      </trkpt>
      <trkpt lat="46.0064" lon="7.69624">
        <ele>2073</ele>
        <time>2011-08-31T21:17:21Z</time>
      </trkpt>
      <trkpt lat="46.00599" lon="7.69618">
        <ele>2101</ele>
        <time>2011-08-31T21:17:37Z</time>
      </trkpt>
      <trkpt lat="46.00579" lon="7.69585">
        <ele>2101</ele>
        <time>2011-08-31T21:17:49Z</time>
      </trkpt>
      <trkpt lat="46.00608" lon="7.69527">
        <ele>2106</ele>
        <time>2011-08-31T21:18:09Z</time>
      </trkpt>
      <trkpt lat="46.00595" lon="7.69501">
        <ele>2106</ele>
        <time>2011-08-31T21:18:18Z</time>
      </trkpt>
      <trkpt lat="46.00609" lon="7.69481">
        <ele>2106</ele>
        <time>2011-08-31T21:18:26Z</time>
      </trkpt>
      <trkpt lat="46.00643" lon="7.69473">
        <ele>2080</ele>
        <time>2011-08-31T21:18:40Z</time>
      </trkpt>
      <trkpt lat="46.0061" lon="7.6947">
        <ele>2106</ele>
        <time>2011-08-31T21:18:53Z</time>
      </trkpt>
      <trkpt lat="46.00609" lon="7.69407">
        <ele>2120</ele>
        <time>2011-08-31T21:19:11Z</time>
      </trkpt>
      <trkpt lat="46.00588" lon="7.69352">
        <ele>2129</ele>
        <time>2011-08-31T21:19:28Z</time>
      </trkpt>
      <trkpt lat="46.00585" lon="7.69314">
        <ele>2129</ele>
        <time>2011-08-31T21:19:39Z</time>
      </trkpt>
      <trkpt lat="46.00551" lon="7.69275">
        <ele>2132</ele>
        <time>2011-08-31T21:19:56Z</time>
      </trkpt>
      <trkpt lat="46.00567" lon="7.6924">
        <ele>2132</ele>
        <time>2011-08-31T21:20:08Z</time>
      </trkpt>
      <trkpt lat="46.00551" lon="7.69195">
        <ele>2139</ele>
        <time>2011-08-31T21:20:22Z</time>
      </trkpt>
      <trkpt lat="46.00559" lon="7.69164">
        <ele>2139</ele>
        <time>2011-08-31T21:20:31Z</time>
      </trkpt>
      <trkpt lat="46.00547" lon="7.69145">
        <ele>2139</ele>
        <time>2011-08-31T21:20:38Z</time>
      </trkpt>
      <trkpt lat="46.00532" lon="7.69115">
        <ele>2170</ele>
        <time>2011-08-31T21:20:48Z</time>
      </trkpt>
      <trkpt lat="46.0051" lon="7.69054">
        <ele>2170</ele>
        <time>2011-08-31T21:21:08Z</time>
      </trkpt>
      <trkpt lat="46.00514" lon="7.69039">
        <ele>2167</ele>
        <time>2011-08-31T21:21:12Z</time>
      </trkpt>
      <trkpt lat="46.00498" lon="7.68994">
        <ele>2167</ele>
        <time>2011-08-31T21:21:26Z</time>
      </trkpt>
      <trkpt lat="46.00511" lon="7.68929">
        <ele>2158</ele>
        <time>2011-08-31T21:21:45Z</time>
      </trkpt>
      <trkpt lat="46.00479" lon="7.68908">
        <ele>2158</ele>
        <time>2011-08-31T21:21:59Z</time>
      </trkpt>
      <trkpt lat="46.00455" lon="7.68798">
        <ele>2204</ele>
        <time>2011-08-31T21:22:31Z</time>
      </trkpt>
      <trkpt lat="46.00406" lon="7.68695">
        <ele>2193</ele>
        <time>2011-08-31T21:23:06Z</time>
      </trkpt>
      <trkpt lat="46.00356" lon="7.68644">
        <ele>2220</ele>
        <time>2011-08-31T21:23:30Z</time>
      </trkpt>
      <trkpt lat="46.00333" lon="7.68586">
        <ele>2218</ele>
        <time>2011-08-31T21:23:49Z</time>
      </trkpt>
      <trkpt lat="46.00282" lon="7.68522">
        <ele>2238</ele>
        <time>2011-08-31T21:24:16Z</time>
      </trkpt>
      <trkpt lat="46.00206" lon="7.68507">
        <ele>2260</ele>
        <time>2011-08-31T21:24:47Z</time>
      </trkpt>
      <trkpt lat="46.00178" lon="7.6853">
        <ele>2260</ele>
        <time>2011-08-31T21:25:00Z</time>
      </trkpt>
      <trkpt lat="46.00157" lon="7.6853">
        <ele>2260</ele>
        <time>2011-08-31T21:25:08Z</time>
      </trkpt>
      <trkpt lat="46.00155" lon="7.68556">
        <ele>2268</ele>
        <time>2011-08-31T21:25:15Z</time>
      </trkpt>
      <trkpt lat="46.00099" lon="7.68637">
        <ele>2303</ele>
        <time>2011-08-31T21:25:47Z</time>
      </trkpt>
      <trkpt lat="46.00075" lon="7.68637">
        <ele>2303</ele>
        <time>2011-08-31T21:25:57Z</time>
      </trkpt>
      <trkpt lat="46.00066" lon="7.68661">
        <ele>2303</ele>
        <time>2011-08-31T21:26:05Z</time>
      </trkpt>
      <trkpt lat="46.00067" lon="7.68687">
        <ele>2303</ele>
        <time>2011-08-31T21:26:12Z</time>
      </trkpt>
      <trkpt lat="46.00032" lon="7.68719">
        <ele>2321</ele>
        <time>2011-08-31T21:26:29Z</time>
      </trkpt>
      <trkpt lat="45.99972" lon="7.68676">
        <ele>2317</ele>
        <time>2011-08-31T21:26:55Z</time>
      </trkpt>
      <trkpt lat="45.99932" lon="7.6868">
        <ele>2339</ele>
        <time>2011-08-31T21:27:11Z</time>
      </trkpt>
      <trkpt lat="45.99891" lon="7.68702">
        <ele>2339</ele>
        <time>2011-08-31T21:27:29Z</time>
      </trkpt>
      <trkpt lat="45.99872" lon="7.68674">
        <ele>2364</ele>
        <time>2011-08-31T21:27:40Z</time>
      </trkpt>
      <trkpt lat="45.99851" lon="7.68672">
        <ele>2364</ele>
        <time>2011-08-31T21:27:48Z</time>
      </trkpt>
      <trkpt lat="45.99808" lon="7.68575">
        <ele>2371</ele>
        <time>2011-08-31T21:28:20Z</time>
      </trkpt>
      <trkpt lat="45.99812" lon="7.68541">
        <ele>2380</ele>
        <time>2011-08-31T21:28:30Z</time>
      </trkpt>
      <trkpt lat="45.99827" lon="7.68496">
        <ele>2380</ele>
        <time>2011-08-31T21:28:43Z</time>
      </trkpt>
      <trkpt lat="45.99824" lon="7.68451">
        <ele>2386</ele>
        <time>2011-08-31T21:28:56Z</time>
      </trkpt>
      <trkpt lat="45.99821" lon="7.68391">
        <ele>2386</ele>
        <time>2011-08-31T21:29:13Z</time>
      </trkpt>
      <trkpt lat="45.9979" lon="7.68352">
        <ele>2416</ele>
        <time>2011-08-31T21:29:29Z</time>
      </trkpt>
      <trkpt lat="45.99771" lon="7.68307">
        <ele>2416</ele>
        <time>2011-08-31T21:29:44Z</time>
      </trkpt>
      <trkpt lat="45.99707" lon="7.68313">
        <ele>2437</ele>
        <time>2011-08-31T21:30:10Z</time>
      </trkpt>
      <trkpt lat="45.99651" lon="7.68348">
        <ele>2437</ele>
        <time>2011-08-31T21:30:34Z</time>
      </trkpt>
      <trkpt lat="45.99619" lon="7.68337">
        <ele>2469</ele>
        <time>2011-08-31T21:30:47Z</time>
      </trkpt>
      <trkpt lat="45.99569" lon="7.68389">
        <ele>2462</ele>
        <time>2011-08-31T21:31:12Z</time>
      </trkpt>
      <trkpt lat="45.99543" lon="7.6838">
        <ele>2462</ele>
        <time>2011-08-31T21:31:23Z</time>
      </trkpt>
      <trkpt lat="45.9947" lon="7.68234">
        <ele>2519</ele>
        <time>2011-08-31T21:32:13Z</time>
      </trkpt>
      <trkpt lat="45.99459" lon="7.68296">
        <ele>2519</ele>
        <time>2011-08-31T21:32:30Z</time>
      </trkpt>
      <trkpt lat="45.9941" lon="7.68335">
        <ele>2574</ele>
        <time>2011-08-31T21:32:53Z</time>
      </trkpt>
      <trkpt lat="45.99322" lon="7.68517">
        <ele>2595</ele>
        <time>2011-08-31T21:33:55Z</time>
      </trkpt>
      <trkpt lat="45.99279" lon="7.68629">
        <ele>2632</ele>
        <time>2011-08-31T21:34:30Z</time>
      </trkpt>
      <trkpt lat="45.99268" lon="7.68665">
        <ele>2632</ele>
        <time>2011-08-31T21:34:41Z</time>
      </trkpt>
      <trkpt lat="45.9921" lon="7.68691">
        <ele>2632</ele>
        <time>2011-08-31T21:35:06Z</time>
      </trkpt>
      <trkpt lat="45.99179" lon="7.68659">
        <ele>2668</ele>
        <time>2011-08-31T21:35:21Z</time>
      </trkpt>
      <trkpt lat="45.99173" lon="7.68687">
        <ele>2668</ele>
        <time>2011-08-31T21:35:29Z</time>
      </trkpt>
      <trkpt lat="45.9914" lon="7.687">
        <ele>2668</ele>
        <time>2011-08-31T21:35:43Z</time>
      </trkpt>
      <trkpt lat="45.99104" lon="7.68734">
        <ele>2722</ele>
        <time>2011-08-31T21:36:00Z</time>
      </trkpt>
      <trkpt lat="45.99078" lon="7.68745">
        <ele>2722</ele>
        <time>2011-08-31T21:36:11Z</time>
      </trkpt>
      <trkpt lat="45.99046" lon="7.68715">
        <ele>2722</ele>
        <time>2011-08-31T21:36:26Z</time>
      </trkpt>
      <trkpt lat="45.99025" lon="7.68788">
        <ele>2777</ele>
        <time>2011-08-31T21:36:48Z</time>
      </trkpt>
      <trkpt lat="45.98946" lon="7.68755">
        <ele>2819</ele>
        <time>2011-08-31T21:37:21Z</time>
      </trkpt>
      <trkpt lat="45.98764" lon="7.68719">
        <ele>2904</ele>
        <time>2011-08-31T21:38:34Z</time>
      </trkpt>
      <trkpt lat="45.98711" lon="7.68693">
        <ele>2891</ele>
        <time>2011-08-31T21:38:57Z</time>
      </trkpt>
      <trkpt lat="45.98666" lon="7.68646">
        <ele>2908</ele>
        <time>2011-08-31T21:39:19Z</time>
      </trkpt>
      <trkpt lat="45.98641" lon="7.68554">
        <ele>2920</ele>
        <time>2011-08-31T21:39:47Z</time>
      </trkpt>
      <trkpt lat="45.98508" lon="7.6847">
        <ele>2924</ele>
        <time>2011-08-31T21:40:45Z</time>
      </trkpt>
      <trkpt lat="45.98474" lon="7.68373">
        <ele>2935</ele>
        <time>2011-08-31T21:41:15Z</time>
      </trkpt>
      <trkpt lat="45.98472" lon="7.68283">
        <ele>2936</ele>
        <time>2011-08-31T21:41:40Z</time>
      </trkpt>
      <trkpt lat="45.98432" lon="7.68275">
        <ele>2998</ele>
        <time>2011-08-31T21:41:56Z</time>
      </trkpt>
      <trkpt lat="45.98383" lon="7.68258">
        <ele>2998</ele>
        <time>2011-08-31T21:42:17Z</time>
      </trkpt>
      <trkpt lat="45.98392" lon="7.68165">
        <ele>2992</ele>
        <time>2011-08-31T21:42:43Z</time>
      </trkpt>
      <trkpt lat="45.98359" lon="7.68131">
        <ele>3029</ele>
        <time>2011-08-31T21:42:59Z</time>
      </trkpt>
      <trkpt lat="45.98356" lon="7.6808">
        <ele>3077</ele>
        <time>2011-08-31T21:43:13Z</time>
      </trkpt>
      <trkpt lat="45.98223" lon="7.6762">
        <ele>3259</ele>
        <time>2011-08-31T21:45:31Z</time>
      </trkpt>
      <trkpt lat="45.98348" lon="7.6809">
        <ele>3077</ele>
        <time>2011-08-31T21:47:51Z</time>
      </trkpt>
      <trkpt lat="45.98348" lon="7.68135">
        <ele>3029</ele>
        <time>2011-08-31T21:48:04Z</time>
      </trkpt>
      <trkpt lat="45.98368" lon="7.68178">
        <ele>3029</ele>
        <time>2011-08-31T21:48:18Z</time>
      </trkpt>
      <trkpt lat="45.98384" lon="7.6818">
        <ele>2992</ele>
        <time>2011-08-31T21:48:25Z</time>
      </trkpt>
      <trkpt lat="45.98383" lon="7.6823">
        <ele>2998</ele>
        <time>2011-08-31T21:48:39Z</time>
      </trkpt>
      <trkpt lat="45.98419" lon="7.68249">
        <ele>2998</ele>
        <time>2011-08-31T21:48:54Z</time>
      </trkpt>
      <trkpt lat="45.98436" lon="7.68238">
        <ele>2998</ele>
        <time>2011-08-31T21:49:02Z</time>
      </trkpt>
      <trkpt lat="45.98459" lon="7.68275">
        <ele>2936</ele>
        <time>2011-08-31T21:49:15Z</time>
      </trkpt>
      <trkpt lat="45.98453" lon="7.68331">
        <ele>2961</ele>
        <time>2011-08-31T21:49:31Z</time>
      </trkpt>
      <trkpt lat="45.98462" lon="7.68395">
        <ele>2940</ele>
        <time>2011-08-31T21:49:49Z</time>
      </trkpt>
      <trkpt lat="45.98506" lon="7.68451">
        <ele>2940</ele>
        <time>2011-08-31T21:50:13Z</time>
      </trkpt>
      <trkpt lat="45.98581" lon="7.68489">
        <ele>2939</ele>
        <time>2011-08-31T21:50:45Z</time>
      </trkpt>
      <trkpt lat="45.98653" lon="7.68549">
        <ele>2920</ele>
        <time>2011-08-31T21:51:18Z</time>
      </trkpt>
      <trkpt lat="45.98676" lon="7.68661">
        <ele>2908</ele>
        <time>2011-08-31T21:51:50Z</time>
      </trkpt>
      <trkpt lat="45.98712" lon="7.68751">
        <ele>2904</ele>
        <time>2011-08-31T21:52:19Z</time>
      </trkpt>
      <trkpt lat="45.98757" lon="7.6885">
        <ele>2909</ele>
        <time>2011-08-31T21:52:52Z</time>
      </trkpt>
      <trkpt lat="45.98799" lon="7.68936">
        <ele>2900</ele>
        <time>2011-08-31T21:53:21Z</time>
      </trkpt>
      <trkpt lat="45.98823" lon="7.69017">
        <ele>2902</ele>
        <time>2011-08-31T21:53:46Z</time>
      </trkpt>
      <trkpt lat="45.98846" lon="7.69094">
        <ele>2902</ele>
        <time>2011-08-31T21:54:09Z</time>
      </trkpt>
      <trkpt lat="45.98879" lon="7.69176">
        <ele>2876</ele>
        <time>2011-08-31T21:54:35Z</time>
      </trkpt>
      <trkpt lat="45.98852" lon="7.69258">
        <ele>2880</ele>
        <time>2011-08-31T21:55:00Z</time>
      </trkpt>
      <trkpt lat="45.98849" lon="7.69361">
        <ele>2857</ele>
        <time>2011-08-31T21:55:29Z</time>
      </trkpt>
      <trkpt lat="45.98814" lon="7.69296">
        <ele>2857</ele>
        <time>2011-08-31T21:55:52Z</time>
      </trkpt>
      <trkpt lat="45.98837" lon="7.69438">
        <ele>2849</ele>
        <time>2011-08-31T21:56:33Z</time>
      </trkpt>
      <trkpt lat="45.98861" lon="7.69549">
        <ele>2773</ele>
        <time>2011-08-31T21:57:05Z</time>
      </trkpt>
      <trkpt lat="45.98897" lon="7.69639">
        <ele>2777</ele>
        <time>2011-08-31T21:57:34Z</time>
      </trkpt>
      <trkpt lat="45.98933" lon="7.69708">
        <ele>2777</ele>
        <time>2011-08-31T21:57:58Z</time>
      </trkpt>
      <trkpt lat="45.9896" lon="7.69785">
        <ele>2779</ele>
        <time>2011-08-31T21:58:22Z</time>
      </trkpt>
      <trkpt lat="45.98972" lon="7.69845">
        <ele>2755</ele>
        <time>2011-08-31T21:58:39Z</time>
      </trkpt>
      <trkpt lat="45.98937" lon="7.69895">
        <ele>2766</ele>
        <time>2011-08-31T21:58:59Z</time>
      </trkpt>
      <trkpt lat="45.98927" lon="7.69942">
        <ele>2766</ele>
        <time>2011-08-31T21:59:12Z</time>
      </trkpt>
      <trkpt lat="45.98963" lon="7.69983">
        <ele>2737</ele>
        <time>2011-08-31T21:59:31Z</time>
      </trkpt>
      <trkpt lat="45.98957" lon="7.70039">
        <ele>2739</ele>
        <time>2011-08-31T21:59:46Z</time>
      </trkpt>
      <trkpt lat="45.99004" lon="7.70058">
        <ele>2712</ele>
        <time>2011-08-31T22:00:06Z</time>
      </trkpt>
      <trkpt lat="45.98987" lon="7.70086">
        <ele>2712</ele>
        <time>2011-08-31T22:00:17Z</time>
      </trkpt>
      <trkpt lat="45.9901" lon="7.70099">
        <ele>2712</ele>
        <time>2011-08-31T22:00:27Z</time>
      </trkpt>
      <trkpt lat="45.98976" lon="7.70124">
        <ele>2712</ele>
        <time>2011-08-31T22:00:42Z</time>
      </trkpt>
      <trkpt lat="45.99007" lon="7.70159">
        <ele>2675</ele>
        <time>2011-08-31T22:00:58Z</time>
      </trkpt>
      <trkpt lat="45.98957" lon="7.70178">
        <ele>2664</ele>
        <time>2011-08-31T22:01:19Z</time>
      </trkpt>
      <trkpt lat="45.98912" lon="7.70172">
        <ele>2664</ele>
        <time>2011-08-31T22:01:37Z</time>
      </trkpt>
      <trkpt lat="45.98924" lon="7.70234">
        <ele>2649</ele>
        <time>2011-08-31T22:01:55Z</time>
      </trkpt>
      <trkpt lat="45.98919" lon="7.70303">
        <ele>2654</ele>
        <time>2011-08-31T22:02:14Z</time>
      </trkpt>
      <trkpt lat="45.98973" lon="7.70363">
        <ele>2630</ele>
        <time>2011-08-31T22:02:41Z</time>
      </trkpt>
      <trkpt lat="45.98996" lon="7.70455">
        <ele>2639</ele>
        <time>2011-08-31T22:03:09Z</time>
      </trkpt>
      <trkpt lat="45.99022" lon="7.7047">
        <ele>2618</ele>
        <time>2011-08-31T22:03:20Z</time>
      </trkpt>
      <trkpt lat="45.99012" lon="7.70487">
        <ele>2618</ele>
        <time>2011-08-31T22:03:26Z</time>
      </trkpt>
      <trkpt lat="45.98982" lon="7.70485">
        <ele>2618</ele>
        <time>2011-08-31T22:03:38Z</time>
      </trkpt>
      <trkpt lat="45.99015" lon="7.7056">
        <ele>2587</ele>
        <time>2011-08-31T22:04:03Z</time>
      </trkpt>
      <trkpt lat="45.99004" lon="7.70562">
        <ele>2587</ele>
        <time>2011-08-31T22:04:07Z</time>
      </trkpt>
      <trkpt lat="45.98993" lon="7.70727">
        <ele>2565</ele>
        <time>2011-08-31T22:04:54Z</time>
      </trkpt>
      <trkpt lat="45.99031" lon="7.70779">
        <ele>2565</ele>
        <time>2011-08-31T22:05:15Z</time>
      </trkpt>
      <trkpt lat="45.99045" lon="7.70818">
        <ele>2571</ele>
        <time>2011-08-31T22:05:27Z</time>
      </trkpt>
      <trkpt lat="45.99103" lon="7.70899">
        <ele>2573</ele>
        <time>2011-08-31T22:05:59Z</time>
      </trkpt>
      <trkpt lat="45.99097" lon="7.70938">
        <ele>2573</ele>
        <time>2011-08-31T22:06:10Z</time>
      </trkpt>
      <trkpt lat="45.99104" lon="7.70976">
        <ele>2580</ele>
        <time>2011-08-31T22:06:21Z</time>
      </trkpt>
      <trkpt lat="45.99142" lon="7.70987">
        <ele>2571</ele>
        <time>2011-08-31T22:06:37Z</time>
      </trkpt>
      <trkpt lat="45.99113" lon="7.71071">
        <ele>2571</ele>
        <time>2011-08-31T22:07:02Z</time>
      </trkpt>
      <trkpt lat="45.99115" lon="7.71133">
        <ele>2557</ele>
        <time>2011-08-31T22:07:20Z</time>
      </trkpt>
      <trkpt lat="45.9913" lon="7.71172">
        <ele>2546</ele>
        <time>2011-08-31T22:07:32Z</time>
      </trkpt>
      <trkpt lat="45.99143" lon="7.71118">
        <ele>2552</ele>
        <time>2011-08-31T22:07:48Z</time>
      </trkpt>
      <trkpt lat="45.99154" lon="7.71219">
        <ele>2532</ele>
        <time>2011-08-31T22:08:16Z</time>
      </trkpt>
      <trkpt lat="45.99124" lon="7.7126">
        <ele>2533</ele>
        <time>2011-08-31T22:08:33Z</time>
      </trkpt>
      <trkpt lat="45.99143" lon="7.71292">
        <ele>2520</ele>
        <time>2011-08-31T22:08:45Z</time>
      </trkpt>
      <trkpt lat="45.99162" lon="7.71279">
        <ele>2532</ele>
        <time>2011-08-31T22:08:53Z</time>
      </trkpt>
      <trkpt lat="45.99167" lon="7.71356">
        <ele>2520</ele>
        <time>2011-08-31T22:09:15Z</time>
      </trkpt>
      <trkpt lat="45.99194" lon="7.71436">
        <ele>2500</ele>
        <time>2011-08-31T22:09:39Z</time>
      </trkpt>
      <trkpt lat="45.99361" lon="7.7168">
        <ele>2444</ele>
        <time>2011-08-31T22:11:15Z</time>
      </trkpt>
      <trkpt lat="45.99364" lon="7.71712">
        <ele>2428</ele>
        <time>2011-08-31T22:11:24Z</time>
      </trkpt>
      <trkpt lat="45.99301" lon="7.71687">
        <ele>2444</ele>
        <time>2011-08-31T22:11:50Z</time>
      </trkpt>
      <trkpt lat="45.99371" lon="7.71811">
        <ele>2401</ele>
        <time>2011-08-31T22:12:34Z</time>
      </trkpt>
      <trkpt lat="45.99364" lon="7.71837">
        <ele>2401</ele>
        <time>2011-08-31T22:12:42Z</time>
      </trkpt>
      <trkpt lat="45.99411" lon="7.71873">
        <ele>2389</ele>
        <time>2011-08-31T22:13:04Z</time>
      </trkpt>
      <trkpt lat="45.99453" lon="7.71798">
        <ele>2389</ele>
        <time>2011-08-31T22:13:30Z</time>
      </trkpt>
      <trkpt lat="45.99483" lon="7.71802">
        <ele>2359</ele>
        <time>2011-08-31T22:13:42Z</time>
      </trkpt>
      <trkpt lat="45.9951" lon="7.71783">
        <ele>2379</ele>
        <time>2011-08-31T22:13:54Z</time>
      </trkpt>
      <trkpt lat="45.9952" lon="7.71809">
        <ele>2359</ele>
        <time>2011-08-31T22:14:03Z</time>
      </trkpt>
      <trkpt lat="45.99502" lon="7.7182">
        <ele>2359</ele>
        <time>2011-08-31T22:14:10Z</time>
      </trkpt>
      <trkpt lat="45.99529" lon="7.71835">
        <ele>2359</ele>
        <time>2011-08-31T22:14:22Z</time>
      </trkpt>
      <trkpt lat="45.99607" lon="7.71863">
        <ele>2346</ele>
        <time>2011-08-31T22:14:54Z</time>
      </trkpt>
      <trkpt lat="45.99637" lon="7.71852">
        <ele>2333</ele>
        <time>2011-08-31T22:15:06Z</time>
      </trkpt>
      <trkpt lat="45.99659" lon="7.71878">
        <ele>2316</ele>
        <time>2011-08-31T22:15:18Z</time>
      </trkpt>
      <trkpt lat="45.99727" lon="7.71923">
        <ele>2305</ele>
        <time>2011-08-31T22:15:48Z</time>
      </trkpt>
      <trkpt lat="45.99707" lon="7.71976">
        <ele>2292</ele>
        <time>2011-08-31T22:16:05Z</time>
      </trkpt>
      <trkpt lat="45.99747" lon="7.72013">
        <ele>2287</ele>
        <time>2011-08-31T22:16:24Z</time>
      </trkpt>
      <trkpt lat="45.99832" lon="7.72004">
        <ele>2272</ele>
        <time>2011-08-31T22:16:58Z</time>
      </trkpt>
      <trkpt lat="45.99914" lon="7.72026">
        <ele>2259</ele>
        <time>2011-08-31T22:17:31Z</time>
      </trkpt>
      <trkpt lat="45.99921" lon="7.72053">
        <ele>2235</ele>
        <time>2011-08-31T22:17:40Z</time>
      </trkpt>
      <trkpt lat="45.99893" lon="7.72086">
        <ele>2235</ele>
        <time>2011-08-31T22:17:54Z</time>
      </trkpt>
      <trkpt lat="45.99966" lon="7.72081">
        <ele>2197</ele>
        <time>2011-08-31T22:18:23Z</time>
      </trkpt>
      <trkpt lat="45.99942" lon="7.72129">
        <ele>2193</ele>
        <time>2011-08-31T22:18:40Z</time>
      </trkpt>
      <trkpt lat="45.99871" lon="7.72161">
        <ele>2193</ele>
        <time>2011-08-31T22:19:10Z</time>
      </trkpt>
      <trkpt lat="45.99963" lon="7.7221">
        <ele>2144</ele>
        <time>2011-08-31T22:19:49Z</time>
      </trkpt>
      <trkpt lat="45.99844" lon="7.72251">
        <ele>2147</ele>
        <time>2011-08-31T22:20:38Z</time>
      </trkpt>
      <trkpt lat="45.99961" lon="7.72324">
        <ele>2093</ele>
        <time>2011-08-31T22:21:30Z</time>
      </trkpt>
      <trkpt lat="45.99881" lon="7.7235">
        <ele>2103</ele>
        <time>2011-08-31T22:22:03Z</time>
      </trkpt>
      <trkpt lat="45.99947" lon="7.72375">
        <ele>2058</ele>
        <time>2011-08-31T22:22:30Z</time>
      </trkpt>
      <trkpt lat="46.00042" lon="7.7236">
        <ele>2085</ele>
        <time>2011-08-31T22:23:08Z</time>
      </trkpt>
      <trkpt lat="46.00088" lon="7.7238">
        <ele>2047</ele>
        <time>2011-08-31T22:23:27Z</time>
      </trkpt>
      <trkpt lat="46.00073" lon="7.72405">
        <ele>2047</ele>
        <time>2011-08-31T22:23:37Z</time>
      </trkpt>
      <trkpt lat="46.00042" lon="7.72388">
        <ele>2047</ele>
        <time>2011-08-31T22:23:50Z</time>
      </trkpt>
      <trkpt lat="45.99993" lon="7.72423">
        <ele>2052</ele>
        <time>2011-08-31T22:24:12Z</time>
      </trkpt>
      <trkpt lat="45.99885" lon="7.72423">
        <ele>2058</ele>
        <time>2011-08-31T22:24:55Z</time>
      </trkpt>
      <trkpt lat="45.9995" lon="7.72506">
        <ele>2013</ele>
        <time>2011-08-31T22:25:30Z</time>
      </trkpt>
      <trkpt lat="46.00026" lon="7.72532">
        <ele>2015</ele>
        <time>2011-08-31T22:26:01Z</time>
      </trkpt>
      <trkpt lat="46.00087" lon="7.7259">
        <ele>1980</ele>
        <time>2011-08-31T22:26:30Z</time>
      </trkpt>
      <trkpt lat="46.00111" lon="7.72656">
        <ele>1948</ele>
        <time>2011-08-31T22:26:51Z</time>
      </trkpt>
      <trkpt lat="46.00194" lon="7.72697">
        <ele>1942</ele>
        <time>2011-08-31T22:27:26Z</time>
      </trkpt>
      <trkpt lat="46.00228" lon="7.72841">
        <ele>1898</ele>
        <time>2011-08-31T22:28:09Z</time>
      </trkpt>
      <trkpt lat="46.00206" lon="7.72948">
        <ele>1875</ele>
        <time>2011-08-31T22:28:40Z</time>
      </trkpt>
      <trkpt lat="46.00157" lon="7.72995">
        <ele>1869</ele>
        <time>2011-08-31T22:29:03Z</time>
      </trkpt>
      <trkpt lat="46.00164" lon="7.7321">
        <ele>1841</ele>
        <time>2011-08-31T22:30:03Z</time>
      </trkpt>
    </trkseg>
  </trk>
  <trk>
    <name><![CDATA[LeCervin on GPSies.com]]></name>
    <trkseg>
      <trkpt lat="45.98207" lon="7.67698">
        <ele>3268.8</ele>
        <time>2011-08-31T20:48:10Z</time>
      </trkpt>
      <trkpt lat="45.98201" lon="7.67718">
        <ele>3259.6</ele>
        <time>2011-08-31T20:48:16Z</time>
      </trkpt>
      <trkpt lat="45.98224" lon="7.67668">
        <ele>3248</ele>
        <time>2011-08-31T20:48:41Z</time>
      </trkpt>
      <trkpt lat="45.98211" lon="7.67692">
        <ele>3245.2</ele>
        <time>2011-08-31T20:48:50Z</time>
      </trkpt>
      <trkpt lat="45.98226" lon="7.67674">
        <ele>3242.7</ele>
        <time>2011-08-31T20:48:58Z</time>
      </trkpt>
      <trkpt lat="45.98212" lon="7.67697">
        <ele>3240</ele>
        <time>2011-08-31T20:49:06Z</time>
      </trkpt>
      <trkpt lat="45.98203" lon="7.67707">
        <ele>3235.2</ele>
        <time>2011-08-31T20:49:12Z</time>
      </trkpt>
      <trkpt lat="45.98216" lon="7.67677">
        <ele>3239</ele>
        <time>2011-08-31T20:49:22Z</time>
      </trkpt>
      <trkpt lat="45.98227" lon="7.67654">
        <ele>3237</ele>
        <time>2011-08-31T20:49:29Z</time>
      </trkpt>
      <trkpt lat="45.98195" lon="7.67702">
        <ele>3235</ele>
        <time>2011-08-31T20:49:48Z</time>
      </trkpt>
      <trkpt lat="45.98186" lon="7.6774">
        <ele>3244</ele>
        <time>2011-08-31T20:49:59Z</time>
      </trkpt>
      <trkpt lat="45.98198" lon="7.67749">
        <ele>3258.3</ele>
        <time>2011-08-31T20:50:04Z</time>
      </trkpt>
      <trkpt lat="45.98204" lon="7.67732">
        <ele>3261</ele>
        <time>2011-08-31T20:50:10Z</time>
      </trkpt>
      <trkpt lat="45.98219" lon="7.67695">
        <ele>3267.7</ele>
        <time>2011-08-31T20:50:22Z</time>
      </trkpt>
      <trkpt lat="45.98226" lon="7.67684">
        <ele>3267.9</ele>
        <time>2011-08-31T20:50:26Z</time>
      </trkpt>
      <trkpt lat="45.98221" lon="7.67709">
        <ele>3268.9</ele>
        <time>2011-08-31T20:50:33Z</time>
      </trkpt>
      <trkpt lat="45.98178" lon="7.67767">
        <ele>3267</ele>
        <time>2011-08-31T20:50:57Z</time>
      </trkpt>
      <trkpt lat="45.98174" lon="7.67756">
        <ele>3267.4</ele>
        <time>2011-08-31T20:51:00Z</time>
      </trkpt>
      <trkpt lat="45.98207" lon="7.67741">
        <ele>3267.5</ele>
        <time>2011-08-31T20:51:15Z</time>
      </trkpt>
      <trkpt lat="45.98209" lon="7.677">
        <ele>3268.9</ele>
        <time>2011-08-31T20:51:29Z</time>
      </trkpt>
      <trkpt lat="45.98231" lon="7.67678">
        <ele>3277.2</ele>
        <time>2011-08-31T20:51:39Z</time>
      </trkpt>
      <trkpt lat="45.98226" lon="7.67598">
        <ele>3294.8</ele>
        <time>2011-08-31T20:52:03Z</time>
      </trkpt>
      <trkpt lat="45.98228" lon="7.67586">
        <ele>3292.4</ele>
        <time>2011-08-31T20:52:07Z</time>
      </trkpt>
      <trkpt lat="45.98207" lon="7.67532">
        <ele>3290.2</ele>
        <time>2011-08-31T20:52:24Z</time>
      </trkpt>
      <trkpt lat="45.98152" lon="7.6746">
        <ele>3285.8</ele>
        <time>2011-08-31T20:52:55Z</time>
      </trkpt>
      <trkpt lat="45.98166" lon="7.67409">
        <ele>3289.5</ele>
        <time>2011-08-31T20:53:13Z</time>
      </trkpt>
      <trkpt lat="45.98157" lon="7.67404">
        <ele>3303.1</ele>
        <time>2011-08-31T20:53:17Z</time>
      </trkpt>
      <trkpt lat="45.98138" lon="7.67409">
        <ele>3309.5</ele>
        <time>2011-08-31T20:53:25Z</time>
      </trkpt>
      <trkpt lat="45.98144" lon="7.67385">
        <ele>3324.1</ele>
        <time>2011-08-31T20:53:32Z</time>
      </trkpt>
      <trkpt lat="45.98114" lon="7.67273">
        <ele>3358</ele>
        <time>2011-08-31T20:54:07Z</time>
      </trkpt>
      <trkpt lat="45.98101" lon="7.67241">
        <ele>3358.4</ele>
        <time>2011-08-31T20:54:18Z</time>
      </trkpt>
      <trkpt lat="45.98104" lon="7.67153">
        <ele>3374.4</ele>
        <time>2011-08-31T20:54:42Z</time>
      </trkpt>
      <trkpt lat="45.98098" lon="7.67177">
        <ele>3378.9</ele>
        <time>2011-08-31T20:54:49Z</time>
      </trkpt>
      <trkpt lat="45.98085" lon="7.67145">
        <ele>3386.1</ele>
        <time>2011-08-31T20:55:00Z</time>
      </trkpt>
      <trkpt lat="45.9808" lon="7.67135">
        <ele>3387.3</ele>
        <time>2011-08-31T20:55:03Z</time>
      </trkpt>
      <trkpt lat="45.98102" lon="7.6712">
        <ele>3410.3</ele>
        <time>2011-08-31T20:55:13Z</time>
      </trkpt>
      <trkpt lat="45.981" lon="7.67107">
        <ele>3430.7</ele>
        <time>2011-08-31T20:55:17Z</time>
      </trkpt>
      <trkpt lat="45.98097" lon="7.67082">
        <ele>3429.3</ele>
        <time>2011-08-31T20:55:24Z</time>
      </trkpt>
      <trkpt lat="45.98081" lon="7.67063">
        <ele>3446.3</ele>
        <time>2011-08-31T20:55:33Z</time>
      </trkpt>
      <trkpt lat="45.98083" lon="7.67028">
        <ele>3481.3</ele>
        <time>2011-08-31T20:55:44Z</time>
      </trkpt>
      <trkpt lat="45.98063" lon="7.66975">
        <ele>3535</ele>
        <time>2011-08-31T20:56:02Z</time>
      </trkpt>
      <trkpt lat="45.98062" lon="7.66962">
        <ele>3543.5</ele>
        <time>2011-08-31T20:56:05Z</time>
      </trkpt>
      <trkpt lat="45.98057" lon="7.66938">
        <ele>3552.2</ele>
        <time>2011-08-31T20:56:12Z</time>
      </trkpt>
      <trkpt lat="45.9805" lon="7.66901">
        <ele>3557.8</ele>
        <time>2011-08-31T20:56:23Z</time>
      </trkpt>
      <trkpt lat="45.98002" lon="7.66791">
        <ele>3626.3</ele>
        <time>2011-08-31T20:57:00Z</time>
      </trkpt>
      <trkpt lat="45.98018" lon="7.66783">
        <ele>3634.3</ele>
        <time>2011-08-31T20:57:07Z</time>
      </trkpt>
      <trkpt lat="45.98012" lon="7.66771">
        <ele>3644.8</ele>
        <time>2011-08-31T20:57:11Z</time>
      </trkpt>
      <trkpt lat="45.98003" lon="7.66754">
        <ele>3651.6</ele>
        <time>2011-08-31T20:57:17Z</time>
      </trkpt>
      <trkpt lat="45.97998" lon="7.66743">
        <ele>3655.2</ele>
        <time>2011-08-31T20:57:20Z</time>
      </trkpt>
      <trkpt lat="45.97984" lon="7.66727">
        <ele>3677.5</ele>
        <time>2011-08-31T20:57:28Z</time>
      </trkpt>
      <trkpt lat="45.97978" lon="7.66704">
        <ele>3683.4</ele>
        <time>2011-08-31T20:57:34Z</time>
      </trkpt>
      <trkpt lat="45.97988" lon="7.66656">
        <ele>3754.1</ele>
        <time>2011-08-31T20:57:49Z</time>
      </trkpt>
      <trkpt lat="45.97991" lon="7.66634">
        <ele>3766.4</ele>
        <time>2011-08-31T20:57:55Z</time>
      </trkpt>
      <trkpt lat="45.97993" lon="7.66619">
        <ele>3767.1</ele>
        <time>2011-08-31T20:57:59Z</time>
      </trkpt>
      <trkpt lat="45.97935" lon="7.66477">
        <ele>3867.1</ele>
        <time>2011-08-31T20:58:48Z</time>
      </trkpt>
      <trkpt lat="45.97892" lon="7.66437">
        <ele>3898.4</ele>
        <time>2011-08-31T20:59:08Z</time>
      </trkpt>
      <trkpt lat="45.9788" lon="7.66394">
        <ele>3927.9</ele>
        <time>2011-08-31T20:59:22Z</time>
      </trkpt>
      <trkpt lat="45.97885" lon="7.66343">
        <ele>3963</ele>
        <time>2011-08-31T20:59:36Z</time>
      </trkpt>
      <trkpt lat="45.97868" lon="7.66345">
        <ele>3981.9</ele>
        <time>2011-08-31T20:59:43Z</time>
      </trkpt>
      <trkpt lat="45.97875" lon="7.66321">
        <ele>3985.2</ele>
        <time>2011-08-31T20:59:51Z</time>
      </trkpt>
      <trkpt lat="45.97863" lon="7.66319">
        <ele>4024</ele>
        <time>2011-08-31T20:59:59Z</time>
      </trkpt>
      <trkpt lat="45.97838" lon="7.66181">
        <ele>4116.2</ele>
        <time>2011-08-31T21:00:42Z</time>
      </trkpt>
      <trkpt lat="45.97832" lon="7.66147">
        <ele>4128.7</ele>
        <time>2011-08-31T21:00:51Z</time>
      </trkpt>
      <trkpt lat="45.97833" lon="7.66134">
        <ele>4161.4</ele>
        <time>2011-08-31T21:00:55Z</time>
      </trkpt>
      <trkpt lat="45.97834" lon="7.66096">
        <ele>4194.2</ele>
        <time>2011-08-31T21:01:06Z</time>
      </trkpt>
      <trkpt lat="45.97835" lon="7.6607">
        <ele>4212.4</ele>
        <time>2011-08-31T21:01:13Z</time>
      </trkpt>
      <trkpt lat="45.97833" lon="7.66058">
        <ele>4220.4</ele>
        <time>2011-08-31T21:01:17Z</time>
      </trkpt>
      <trkpt lat="45.978" lon="7.66042">
        <ele>4248</ele>
        <time>2011-08-31T21:01:31Z</time>
      </trkpt>
      <trkpt lat="45.97774" lon="7.66033">
        <ele>4256.3</ele>
        <time>2011-08-31T21:01:42Z</time>
      </trkpt>
      <trkpt lat="45.97768" lon="7.66012">
        <ele>4277.8</ele>
        <time>2011-08-31T21:01:49Z</time>
      </trkpt>
      <trkpt lat="45.97754" lon="7.65978">
        <ele>4301.3</ele>
        <time>2011-08-31T21:01:59Z</time>
      </trkpt>
      <trkpt lat="45.97704" lon="7.65954">
        <ele>4387.6</ele>
        <time>2011-08-31T21:02:21Z</time>
      </trkpt>
      <trkpt lat="45.97687" lon="7.65945">
        <ele>4404.9</ele>
        <time>2011-08-31T21:02:28Z</time>
      </trkpt>
      <trkpt lat="45.9768" lon="7.65937">
        <ele>4417</ele>
        <time>2011-08-31T21:02:32Z</time>
      </trkpt>
      <trkpt lat="45.97671" lon="7.65939">
        <ele>4427.3</ele>
        <time>2011-08-31T21:02:35Z</time>
      </trkpt>
      <trkpt lat="45.97637" lon="7.65923">
        <ele>4466.4</ele>
        <time>2011-08-31T21:02:49Z</time>
      </trkpt>
      <trkpt lat="45.97643" lon="7.65861">
        <ele>4480.4</ele>
        <time>2011-08-31T21:03:07Z</time>
      </trkpt>
      <trkpt lat="45.97637" lon="7.65921">
        <ele>4464.8</ele>
        <time>2011-08-31T21:03:24Z</time>
      </trkpt>
      <trkpt lat="45.977" lon="7.65949">
        <ele>4423.1</ele>
        <time>2011-08-31T21:03:52Z</time>
      </trkpt>
      <trkpt lat="45.97724" lon="7.65963">
        <ele>4380.9</ele>
        <time>2011-08-31T21:04:09Z</time>
      </trkpt>
      <trkpt lat="45.97757" lon="7.65976">
        <ele>4312.1</ele>
        <time>2011-08-31T21:04:23Z</time>
      </trkpt>
      <trkpt lat="45.97775" lon="7.6602">
        <ele>4281</ele>
        <time>2011-08-31T21:04:38Z</time>
      </trkpt>
      <trkpt lat="45.97773" lon="7.66032">
        <ele>4270.7</ele>
        <time>2011-08-31T21:04:41Z</time>
      </trkpt>
      <trkpt lat="45.97787" lon="7.66045">
        <ele>4259.2</ele>
        <time>2011-08-31T21:04:48Z</time>
      </trkpt>
      <trkpt lat="45.97804" lon="7.66044">
        <ele>4255.3</ele>
        <time>2011-08-31T21:04:55Z</time>
      </trkpt>
      <trkpt lat="45.97813" lon="7.66046">
        <ele>4250.1</ele>
        <time>2011-08-31T21:04:58Z</time>
      </trkpt>
      <trkpt lat="45.97829" lon="7.66056">
        <ele>4233.8</ele>
        <time>2011-08-31T21:05:06Z</time>
      </trkpt>
      <trkpt lat="45.97837" lon="7.66074">
        <ele>4217</ele>
        <time>2011-08-31T21:05:11Z</time>
      </trkpt>
      <trkpt lat="45.97838" lon="7.66125">
        <ele>4191.8</ele>
        <time>2011-08-31T21:05:26Z</time>
      </trkpt>
      <trkpt lat="45.97839" lon="7.66112">
        <ele>4186.1</ele>
        <time>2011-08-31T21:05:29Z</time>
      </trkpt>
      <trkpt lat="45.97838" lon="7.66129">
        <ele>4185.1</ele>
        <time>2011-08-31T21:05:34Z</time>
      </trkpt>
      <trkpt lat="45.97838" lon="7.66138">
        <ele>4177.1</ele>
        <time>2011-08-31T21:05:37Z</time>
      </trkpt>
      <trkpt lat="45.97844" lon="7.66128">
        <ele>4167.7</ele>
        <time>2011-08-31T21:05:40Z</time>
      </trkpt>
      <trkpt lat="45.97844" lon="7.66154">
        <ele>4159.5</ele>
        <time>2011-08-31T21:05:48Z</time>
      </trkpt>
      <trkpt lat="45.97828" lon="7.66145">
        <ele>4155.6</ele>
        <time>2011-08-31T21:05:55Z</time>
      </trkpt>
      <trkpt lat="45.97829" lon="7.66158">
        <ele>4153.4</ele>
        <time>2011-08-31T21:05:58Z</time>
      </trkpt>
      <trkpt lat="45.97816" lon="7.66147">
        <ele>4148.1</ele>
        <time>2011-08-31T21:06:04Z</time>
      </trkpt>
      <trkpt lat="45.97843" lon="7.6618">
        <ele>4127.7</ele>
        <time>2011-08-31T21:06:20Z</time>
      </trkpt>
      <trkpt lat="45.97864" lon="7.66287">
        <ele>4041.9</ele>
        <time>2011-08-31T21:06:51Z</time>
      </trkpt>
      <trkpt lat="45.97864" lon="7.66298">
        <ele>4028.7</ele>
        <time>2011-08-31T21:06:55Z</time>
      </trkpt>
      <trkpt lat="45.97872" lon="7.66302">
        <ele>4027.5</ele>
        <time>2011-08-31T21:06:58Z</time>
      </trkpt>
      <trkpt lat="45.97879" lon="7.6631">
        <ele>4021</ele>
        <time>2011-08-31T21:07:02Z</time>
      </trkpt>
      <trkpt lat="45.97877" lon="7.66322">
        <ele>4017</ele>
        <time>2011-08-31T21:07:05Z</time>
      </trkpt>
      <trkpt lat="45.97881" lon="7.66372">
        <ele>3968.1</ele>
        <time>2011-08-31T21:07:19Z</time>
      </trkpt>
      <trkpt lat="45.97886" lon="7.66383">
        <ele>3961.9</ele>
        <time>2011-08-31T21:07:23Z</time>
      </trkpt>
      <trkpt lat="45.97882" lon="7.66394">
        <ele>3955.5</ele>
        <time>2011-08-31T21:07:26Z</time>
      </trkpt>
      <trkpt lat="45.97893" lon="7.66412">
        <ele>3939.7</ele>
        <time>2011-08-31T21:07:33Z</time>
      </trkpt>
      <trkpt lat="45.97892" lon="7.66425">
        <ele>3932.7</ele>
        <time>2011-08-31T21:07:37Z</time>
      </trkpt>
      <trkpt lat="45.97894" lon="7.6645">
        <ele>3914.1</ele>
        <time>2011-08-31T21:07:44Z</time>
      </trkpt>
      <trkpt lat="45.9792" lon="7.66477">
        <ele>3897.4</ele>
        <time>2011-08-31T21:07:58Z</time>
      </trkpt>
      <trkpt lat="45.97932" lon="7.66493">
        <ele>3883.9</ele>
        <time>2011-08-31T21:08:04Z</time>
      </trkpt>
      <trkpt lat="45.97939" lon="7.66516">
        <ele>3864.7</ele>
        <time>2011-08-31T21:08:11Z</time>
      </trkpt>
      <trkpt lat="45.97929" lon="7.66588">
        <ele>3857</ele>
        <time>2011-08-31T21:08:32Z</time>
      </trkpt>
      <trkpt lat="45.97945" lon="7.6655">
        <ele>3854</ele>
        <time>2011-08-31T21:08:44Z</time>
      </trkpt>
      <trkpt lat="45.9796" lon="7.66551">
        <ele>3848.6</ele>
        <time>2011-08-31T21:08:50Z</time>
      </trkpt>
      <trkpt lat="45.97959" lon="7.66609">
        <ele>3828.5</ele>
        <time>2011-08-31T21:09:08Z</time>
      </trkpt>
      <trkpt lat="45.97959" lon="7.66623">
        <ele>3820.1</ele>
        <time>2011-08-31T21:09:12Z</time>
      </trkpt>
      <trkpt lat="45.97982" lon="7.66615">
        <ele>3796.5</ele>
        <time>2011-08-31T21:09:24Z</time>
      </trkpt>
      <trkpt lat="45.97995" lon="7.66645">
        <ele>3786.4</ele>
        <time>2011-08-31T21:09:34Z</time>
      </trkpt>
      <trkpt lat="45.97987" lon="7.66668">
        <ele>3769.8</ele>
        <time>2011-08-31T21:09:42Z</time>
      </trkpt>
      <trkpt lat="45.97976" lon="7.66692">
        <ele>3744.3</ele>
        <time>2011-08-31T21:09:50Z</time>
      </trkpt>
      <trkpt lat="45.98014" lon="7.66772">
        <ele>3696</ele>
        <time>2011-08-31T21:10:17Z</time>
      </trkpt>
      <trkpt lat="45.98018" lon="7.66784">
        <ele>3687</ele>
        <time>2011-08-31T21:10:21Z</time>
      </trkpt>
      <trkpt lat="45.98009" lon="7.66782">
        <ele>3677.4</ele>
        <time>2011-08-31T21:10:25Z</time>
      </trkpt>
      <trkpt lat="45.98017" lon="7.66822">
        <ele>3651.1</ele>
        <time>2011-08-31T21:10:36Z</time>
      </trkpt>
      <trkpt lat="45.98039" lon="7.66862">
        <ele>3628.2</ele>
        <time>2011-08-31T21:10:50Z</time>
      </trkpt>
      <trkpt lat="45.98045" lon="7.66871">
        <ele>3620.6</ele>
        <time>2011-08-31T21:10:54Z</time>
      </trkpt>
      <trkpt lat="45.98044" lon="7.66884">
        <ele>3622.7</ele>
        <time>2011-08-31T21:10:58Z</time>
      </trkpt>
      <trkpt lat="45.98066" lon="7.66962">
        <ele>3592</ele>
        <time>2011-08-31T21:11:22Z</time>
      </trkpt>
      <trkpt lat="45.98071" lon="7.66973">
        <ele>3583.4</ele>
        <time>2011-08-31T21:11:25Z</time>
      </trkpt>
      <trkpt lat="45.98087" lon="7.67041">
        <ele>3517.9</ele>
        <time>2011-08-31T21:11:50Z</time>
      </trkpt>
      <trkpt lat="45.98082" lon="7.67053">
        <ele>3501.5</ele>
        <time>2011-08-31T21:11:54Z</time>
      </trkpt>
      <trkpt lat="45.98101" lon="7.6708">
        <ele>3446.4</ele>
        <time>2011-08-31T21:12:04Z</time>
      </trkpt>
      <trkpt lat="45.98091" lon="7.67105">
        <ele>3445.8</ele>
        <time>2011-08-31T21:12:12Z</time>
      </trkpt>
      <trkpt lat="45.98093" lon="7.67114">
        <ele>3443.5</ele>
        <time>2011-08-31T21:12:15Z</time>
      </trkpt>
      <trkpt lat="45.98118" lon="7.67146">
        <ele>3432.9</ele>
        <time>2011-08-31T21:12:29Z</time>
      </trkpt>
      <trkpt lat="45.9812" lon="7.67145">
        <ele>3422.2</ele>
        <time>2011-08-31T21:12:29Z</time>
      </trkpt>
      <trkpt lat="45.98095" lon="7.67132">
        <ele>3410.3</ele>
        <time>2011-08-31T21:12:40Z</time>
      </trkpt>
      <trkpt lat="45.98088" lon="7.67138">
        <ele>3403.2</ele>
        <time>2011-08-31T21:12:43Z</time>
      </trkpt>
      <trkpt lat="45.98116" lon="7.67156">
        <ele>3392.8</ele>
        <time>2011-08-31T21:12:57Z</time>
      </trkpt>
      <trkpt lat="45.98081" lon="7.67206">
        <ele>3374.8</ele>
        <time>2011-08-31T21:13:18Z</time>
      </trkpt>
      <trkpt lat="45.98102" lon="7.67259">
        <ele>3375.4</ele>
        <time>2011-08-31T21:13:35Z</time>
      </trkpt>
      <trkpt lat="45.9812" lon="7.67285">
        <ele>3369.4</ele>
        <time>2011-08-31T21:13:45Z</time>
      </trkpt>
      <trkpt lat="45.98143" lon="7.67391">
        <ele>3340.7</ele>
        <time>2011-08-31T21:14:17Z</time>
      </trkpt>
      <trkpt lat="45.98139" lon="7.67403">
        <ele>3330.5</ele>
        <time>2011-08-31T21:14:21Z</time>
      </trkpt>
      <trkpt lat="45.98153" lon="7.67412">
        <ele>3324</ele>
        <time>2011-08-31T21:14:27Z</time>
      </trkpt>
      <trkpt lat="45.98168" lon="7.67426">
        <ele>3305</ele>
        <time>2011-08-31T21:14:34Z</time>
      </trkpt>
      <trkpt lat="45.98163" lon="7.67444">
        <ele>3302.3</ele>
        <time>2011-08-31T21:14:40Z</time>
      </trkpt>
      <trkpt lat="45.98154" lon="7.67451">
        <ele>3296.7</ele>
        <time>2011-08-31T21:14:44Z</time>
      </trkpt>
      <trkpt lat="45.98161" lon="7.67473">
        <ele>3299.4</ele>
        <time>2011-08-31T21:14:51Z</time>
      </trkpt>
      <trkpt lat="45.9817" lon="7.67494">
        <ele>3304.3</ele>
        <time>2011-08-31T21:14:58Z</time>
      </trkpt>
      <trkpt lat="45.98192" lon="7.67514">
        <ele>3307</ele>
        <time>2011-08-31T21:15:08Z</time>
      </trkpt>
      <trkpt lat="45.98198" lon="7.67522">
        <ele>3305.6</ele>
        <time>2011-08-31T21:15:12Z</time>
      </trkpt>
      <trkpt lat="45.9821" lon="7.67555">
        <ele>3309.2</ele>
        <time>2011-08-31T21:15:22Z</time>
      </trkpt>
      <trkpt lat="45.9823" lon="7.67596">
        <ele>3307.2</ele>
        <time>2011-08-31T21:15:36Z</time>
      </trkpt>
      <trkpt lat="45.98234" lon="7.6762">
        <ele>3303.4</ele>
        <time>2011-08-31T21:15:43Z</time>
      </trkpt>
      <trkpt lat="45.98238" lon="7.67645">
        <ele>3298.4</ele>
        <time>2011-08-31T21:15:50Z</time>
      </trkpt>
      <trkpt lat="45.98232" lon="7.67679">
        <ele>3287.8</ele>
        <time>2011-08-31T21:16:00Z</time>
      </trkpt>
      <trkpt lat="45.98211" lon="7.67695">
        <ele>3280.3</ele>
        <time>2011-08-31T21:16:10Z</time>
      </trkpt>
      <trkpt lat="45.98255" lon="7.67708">
        <ele>3278.3</ele>
        <time>2011-08-31T21:16:29Z</time>
      </trkpt>
      <trkpt lat="45.98223" lon="7.67693">
        <ele>3277.9</ele>
        <time>2011-08-31T21:16:43Z</time>
      </trkpt>
      <trkpt lat="45.98204" lon="7.67706">
        <ele>3280.3</ele>
        <time>2011-08-31T21:16:52Z</time>
      </trkpt>
      <trkpt lat="45.98219" lon="7.67698">
        <ele>3279</ele>
        <time>2011-08-31T21:16:59Z</time>
      </trkpt>
      <trkpt lat="45.9819" lon="7.67736">
        <ele>3278</ele>
        <time>2011-08-31T21:17:15Z</time>
      </trkpt>
      <trkpt lat="45.9822" lon="7.67719">
        <ele>3279.2</ele>
        <time>2011-08-31T21:17:29Z</time>
      </trkpt>
      <trkpt lat="45.98211" lon="7.67726">
        <ele>3275.4</ele>
        <time>2011-08-31T21:17:34Z</time>
      </trkpt>
      <trkpt lat="45.98203" lon="7.67743">
        <ele>3266.4</ele>
        <time>2011-08-31T21:17:39Z</time>
      </trkpt>
      <trkpt lat="45.9824" lon="7.67792">
        <ele>3249.1</ele>
        <time>2011-08-31T21:18:00Z</time>
      </trkpt>
      <trkpt lat="45.98238" lon="7.67804">
        <ele>3246.6</ele>
        <time>2011-08-31T21:18:04Z</time>
      </trkpt>
      <trkpt lat="45.98256" lon="7.67844">
        <ele>3229.8</ele>
        <time>2011-08-31T21:18:18Z</time>
      </trkpt>
      <trkpt lat="45.98239" lon="7.67868">
        <ele>3221.8</ele>
        <time>2011-08-31T21:18:28Z</time>
      </trkpt>
      <trkpt lat="45.98253" lon="7.67884">
        <ele>3214.3</ele>
        <time>2011-08-31T21:18:35Z</time>
      </trkpt>
      <trkpt lat="45.98236" lon="7.67908">
        <ele>3202.2</ele>
        <time>2011-08-31T21:18:45Z</time>
      </trkpt>
      <trkpt lat="45.98244" lon="7.67913">
        <ele>3200.8</ele>
        <time>2011-08-31T21:18:48Z</time>
      </trkpt>
      <trkpt lat="45.98244" lon="7.6795">
        <ele>3184.4</ele>
        <time>2011-08-31T21:18:59Z</time>
      </trkpt>
      <trkpt lat="45.98277" lon="7.67951">
        <ele>3172.6</ele>
        <time>2011-08-31T21:19:12Z</time>
      </trkpt>
      <trkpt lat="45.98288" lon="7.67971">
        <ele>3170.9</ele>
        <time>2011-08-31T21:19:20Z</time>
      </trkpt>
      <trkpt lat="45.98296" lon="7.67991">
        <ele>3158.8</ele>
        <time>2011-08-31T21:19:26Z</time>
      </trkpt>
      <trkpt lat="45.98307" lon="7.6799">
        <ele>3147.9</ele>
        <time>2011-08-31T21:19:31Z</time>
      </trkpt>
      <trkpt lat="45.98316" lon="7.68037">
        <ele>3139.4</ele>
        <time>2011-08-31T21:19:44Z</time>
      </trkpt>
      <trkpt lat="45.9833" lon="7.68068">
        <ele>3128.1</ele>
        <time>2011-08-31T21:19:55Z</time>
      </trkpt>
      <trkpt lat="45.9835" lon="7.68086">
        <ele>3110.4</ele>
        <time>2011-08-31T21:20:05Z</time>
      </trkpt>
      <trkpt lat="45.98359" lon="7.68149">
        <ele>3095.4</ele>
        <time>2011-08-31T21:20:24Z</time>
      </trkpt>
      <trkpt lat="45.98371" lon="7.68169">
        <ele>3085.6</ele>
        <time>2011-08-31T21:20:31Z</time>
      </trkpt>
      <trkpt lat="45.98376" lon="7.68172">
        <ele>3073</ele>
        <time>2011-08-31T21:20:34Z</time>
      </trkpt>
      <trkpt lat="45.9837" lon="7.68215">
        <ele>3064.3</ele>
        <time>2011-08-31T21:20:47Z</time>
      </trkpt>
      <trkpt lat="45.98394" lon="7.68209">
        <ele>3056.8</ele>
        <time>2011-08-31T21:20:58Z</time>
      </trkpt>
      <trkpt lat="45.9838" lon="7.68221">
        <ele>3053.4</ele>
        <time>2011-08-31T21:21:04Z</time>
      </trkpt>
      <trkpt lat="45.98384" lon="7.68232">
        <ele>3049.7</ele>
        <time>2011-08-31T21:21:08Z</time>
      </trkpt>
      <trkpt lat="45.98422" lon="7.68256">
        <ele>3022.4</ele>
        <time>2011-08-31T21:21:25Z</time>
      </trkpt>
      <trkpt lat="45.98429" lon="7.68238">
        <ele>3013.4</ele>
        <time>2011-08-31T21:21:32Z</time>
      </trkpt>
      <trkpt lat="45.9845" lon="7.68261">
        <ele>3007.4</ele>
        <time>2011-08-31T21:21:42Z</time>
      </trkpt>
      <trkpt lat="45.98456" lon="7.68284">
        <ele>3005.6</ele>
        <time>2011-08-31T21:21:49Z</time>
      </trkpt>
      <trkpt lat="45.98459" lon="7.68296">
        <ele>3001.8</ele>
        <time>2011-08-31T21:21:53Z</time>
      </trkpt>
      <trkpt lat="45.98463" lon="7.68317">
        <ele>2996.4</ele>
        <time>2011-08-31T21:21:59Z</time>
      </trkpt>
      <trkpt lat="45.98461" lon="7.68381">
        <ele>2979.8</ele>
        <time>2011-08-31T21:22:18Z</time>
      </trkpt>
      <trkpt lat="45.98631" lon="7.68526">
        <ele>2970</ele>
        <time>2011-08-31T21:23:38Z</time>
      </trkpt>
      <trkpt lat="45.98662" lon="7.68637">
        <ele>2965.3</ele>
        <time>2011-08-31T21:24:13Z</time>
      </trkpt>
      <trkpt lat="45.98704" lon="7.68744">
        <ele>2941.3</ele>
        <time>2011-08-31T21:24:47Z</time>
      </trkpt>
      <trkpt lat="45.98794" lon="7.68885">
        <ele>2940.9</ele>
        <time>2011-08-31T21:25:41Z</time>
      </trkpt>
      <trkpt lat="45.98876" lon="7.69146">
        <ele>2923.9</ele>
        <time>2011-08-31T21:27:01Z</time>
      </trkpt>
      <trkpt lat="45.98875" lon="7.69181">
        <ele>2919.5</ele>
        <time>2011-08-31T21:27:11Z</time>
      </trkpt>
      <trkpt lat="45.98867" lon="7.69227">
        <ele>2908.5</ele>
        <time>2011-08-31T21:27:24Z</time>
      </trkpt>
      <trkpt lat="45.98854" lon="7.69235">
        <ele>2906.6</ele>
        <time>2011-08-31T21:27:31Z</time>
      </trkpt>
      <trkpt lat="45.98847" lon="7.69279">
        <ele>2903.1</ele>
        <time>2011-08-31T21:27:44Z</time>
      </trkpt>
      <trkpt lat="45.98863" lon="7.69267">
        <ele>2896.3</ele>
        <time>2011-08-31T21:27:51Z</time>
      </trkpt>
      <trkpt lat="45.98853" lon="7.69333">
        <ele>2889.7</ele>
        <time>2011-08-31T21:28:10Z</time>
      </trkpt>
      <trkpt lat="45.98843" lon="7.69367">
        <ele>2881.4</ele>
        <time>2011-08-31T21:28:21Z</time>
      </trkpt>
      <trkpt lat="45.98836" lon="7.69306">
        <ele>2867.4</ele>
        <time>2011-08-31T21:28:38Z</time>
      </trkpt>
      <trkpt lat="45.9883" lon="7.69295">
        <ele>2859.2</ele>
        <time>2011-08-31T21:28:42Z</time>
      </trkpt>
      <trkpt lat="45.9882" lon="7.69301">
        <ele>2852.8</ele>
        <time>2011-08-31T21:28:46Z</time>
      </trkpt>
      <trkpt lat="45.98823" lon="7.69361">
        <ele>2849.4</ele>
        <time>2011-08-31T21:29:03Z</time>
      </trkpt>
      <trkpt lat="45.98835" lon="7.69456">
        <ele>2843.8</ele>
        <time>2011-08-31T21:29:30Z</time>
      </trkpt>
      <trkpt lat="45.98854" lon="7.69505">
        <ele>2832.7</ele>
        <time>2011-08-31T21:29:47Z</time>
      </trkpt>
      <trkpt lat="45.98842" lon="7.69522">
        <ele>2832.7</ele>
        <time>2011-08-31T21:29:54Z</time>
      </trkpt>
      <trkpt lat="45.9886" lon="7.69516">
        <ele>2833</ele>
        <time>2011-08-31T21:30:01Z</time>
      </trkpt>
      <trkpt lat="45.98842" lon="7.69524">
        <ele>2832</ele>
        <time>2011-08-31T21:30:09Z</time>
      </trkpt>
      <trkpt lat="45.98851" lon="7.69518">
        <ele>2831</ele>
        <time>2011-08-31T21:30:13Z</time>
      </trkpt>
      <trkpt lat="45.98862" lon="7.69533">
        <ele>2825.4</ele>
        <time>2011-08-31T21:30:19Z</time>
      </trkpt>
      <trkpt lat="45.98879" lon="7.69602">
        <ele>2815.7</ele>
        <time>2011-08-31T21:30:40Z</time>
      </trkpt>
      <trkpt lat="45.9893" lon="7.69679">
        <ele>2804.7</ele>
        <time>2011-08-31T21:31:10Z</time>
      </trkpt>
      <trkpt lat="45.9894" lon="7.697">
        <ele>2801.6</ele>
        <time>2011-08-31T21:31:17Z</time>
      </trkpt>
      <trkpt lat="45.98962" lon="7.69776">
        <ele>2788.3</ele>
        <time>2011-08-31T21:31:40Z</time>
      </trkpt>
      <trkpt lat="45.98965" lon="7.69848">
        <ele>2787.3</ele>
        <time>2011-08-31T21:32:01Z</time>
      </trkpt>
      <trkpt lat="45.98961" lon="7.69871">
        <ele>2788.7</ele>
        <time>2011-08-31T21:32:07Z</time>
      </trkpt>
      <trkpt lat="45.98958" lon="7.69881">
        <ele>2787.1</ele>
        <time>2011-08-31T21:32:10Z</time>
      </trkpt>
      <trkpt lat="45.98934" lon="7.69893">
        <ele>2788</ele>
        <time>2011-08-31T21:32:21Z</time>
      </trkpt>
      <trkpt lat="45.9894" lon="7.6994">
        <ele>2790.1</ele>
        <time>2011-08-31T21:32:34Z</time>
      </trkpt>
      <trkpt lat="45.98938" lon="7.69915">
        <ele>2789.7</ele>
        <time>2011-08-31T21:32:41Z</time>
      </trkpt>
      <trkpt lat="45.98941" lon="7.69904">
        <ele>2787.3</ele>
        <time>2011-08-31T21:32:44Z</time>
      </trkpt>
      <trkpt lat="45.98963" lon="7.69952">
        <ele>2780.8</ele>
        <time>2011-08-31T21:33:01Z</time>
      </trkpt>
      <trkpt lat="45.98945" lon="7.70021">
        <ele>2773.7</ele>
        <time>2011-08-31T21:33:22Z</time>
      </trkpt>
      <trkpt lat="45.98964" lon="7.70046">
        <ele>2768.5</ele>
        <time>2011-08-31T21:33:33Z</time>
      </trkpt>
      <trkpt lat="45.98998" lon="7.70051">
        <ele>2760.6</ele>
        <time>2011-08-31T21:33:47Z</time>
      </trkpt>
      <trkpt lat="45.99001" lon="7.70072">
        <ele>2756.9</ele>
        <time>2011-08-31T21:33:53Z</time>
      </trkpt>
      <trkpt lat="45.98986" lon="7.7008">
        <ele>2752.2</ele>
        <time>2011-08-31T21:34:00Z</time>
      </trkpt>
      <trkpt lat="45.98984" lon="7.70093">
        <ele>2744.4</ele>
        <time>2011-08-31T21:34:03Z</time>
      </trkpt>
      <trkpt lat="45.99009" lon="7.70097">
        <ele>2738.6</ele>
        <time>2011-08-31T21:34:13Z</time>
      </trkpt>
      <trkpt lat="45.98972" lon="7.70118">
        <ele>2724.7</ele>
        <time>2011-08-31T21:34:30Z</time>
      </trkpt>
      <trkpt lat="45.99002" lon="7.70158">
        <ele>2713.4</ele>
        <time>2011-08-31T21:34:47Z</time>
      </trkpt>
      <trkpt lat="45.98997" lon="7.70167">
        <ele>2710.2</ele>
        <time>2011-08-31T21:34:50Z</time>
      </trkpt>
      <trkpt lat="45.98929" lon="7.70165">
        <ele>2700</ele>
        <time>2011-08-31T21:35:18Z</time>
      </trkpt>
      <trkpt lat="45.9892" lon="7.70173">
        <ele>2690.4</ele>
        <time>2011-08-31T21:35:22Z</time>
      </trkpt>
      <trkpt lat="45.9892" lon="7.70299">
        <ele>2674.5</ele>
        <time>2011-08-31T21:35:59Z</time>
      </trkpt>
      <trkpt lat="45.98973" lon="7.70395">
        <ele>2680.3</ele>
        <time>2011-08-31T21:36:34Z</time>
      </trkpt>
      <trkpt lat="45.98975" lon="7.70406">
        <ele>2680.8</ele>
        <time>2011-08-31T21:36:37Z</time>
      </trkpt>
      <trkpt lat="45.98986" lon="7.70442">
        <ele>2681.2</ele>
        <time>2011-08-31T21:36:48Z</time>
      </trkpt>
      <trkpt lat="45.99008" lon="7.70479">
        <ele>2671.4</ele>
        <time>2011-08-31T21:37:01Z</time>
      </trkpt>
      <trkpt lat="45.99009" lon="7.70495">
        <ele>2666.7</ele>
        <time>2011-08-31T21:37:06Z</time>
      </trkpt>
      <trkpt lat="45.98975" lon="7.70492">
        <ele>2655.5</ele>
        <time>2011-08-31T21:37:20Z</time>
      </trkpt>
      <trkpt lat="45.99011" lon="7.70561">
        <ele>2629.7</ele>
        <time>2011-08-31T21:37:45Z</time>
      </trkpt>
      <trkpt lat="45.98992" lon="7.70715">
        <ele>2586.3</ele>
        <time>2011-08-31T21:38:29Z</time>
      </trkpt>
      <trkpt lat="45.99075" lon="7.70868">
        <ele>2589.9</ele>
        <time>2011-08-31T21:39:24Z</time>
      </trkpt>
      <trkpt lat="45.991" lon="7.70916">
        <ele>2586.9</ele>
        <time>2011-08-31T21:39:41Z</time>
      </trkpt>
      <trkpt lat="45.9912" lon="7.7103">
        <ele>2595</ele>
        <time>2011-08-31T21:40:16Z</time>
      </trkpt>
      <trkpt lat="45.99121" lon="7.71033">
        <ele>2595</ele>
        <time>2011-08-31T21:40:16Z</time>
      </trkpt>
      <trkpt lat="45.99103" lon="7.70961">
        <ele>2592.5</ele>
        <time>2011-08-31T21:40:38Z</time>
      </trkpt>
      <trkpt lat="45.9911" lon="7.70953">
        <ele>2590</ele>
        <time>2011-08-31T21:40:42Z</time>
      </trkpt>
      <trkpt lat="45.99102" lon="7.70962">
        <ele>2593.7</ele>
        <time>2011-08-31T21:40:46Z</time>
      </trkpt>
      <trkpt lat="45.99101" lon="7.71002">
        <ele>2597.1</ele>
        <time>2011-08-31T21:41:21Z</time>
      </trkpt>
      <trkpt lat="45.99103" lon="7.7097">
        <ele>2593.9</ele>
        <time>2011-08-31T21:41:31Z</time>
      </trkpt>
      <trkpt lat="45.99096" lon="7.70985">
        <ele>2593.4</ele>
        <time>2011-08-31T21:41:40Z</time>
      </trkpt>
      <trkpt lat="45.991" lon="7.70851">
        <ele>2588.1</ele>
        <time>2011-08-31T21:42:17Z</time>
      </trkpt>
      <trkpt lat="45.99104" lon="7.70831">
        <ele>2586.5</ele>
        <time>2011-08-31T21:42:23Z</time>
      </trkpt>
      <trkpt lat="45.99191" lon="7.70711">
        <ele>2573.8</ele>
        <time>2011-08-31T21:43:11Z</time>
      </trkpt>
      <trkpt lat="45.99212" lon="7.70663">
        <ele>2567.4</ele>
        <time>2011-08-31T21:43:27Z</time>
      </trkpt>
      <trkpt lat="45.99354" lon="7.70544">
        <ele>2549.2</ele>
        <time>2011-08-31T21:44:34Z</time>
      </trkpt>
      <trkpt lat="45.99366" lon="7.70421">
        <ele>2545.4</ele>
        <time>2011-08-31T21:45:10Z</time>
      </trkpt>
      <trkpt lat="45.99379" lon="7.70388">
        <ele>2542.9</ele>
        <time>2011-08-31T21:45:20Z</time>
      </trkpt>
      <trkpt lat="45.99448" lon="7.70334">
        <ele>2528.8</ele>
        <time>2011-08-31T21:45:52Z</time>
      </trkpt>
      <trkpt lat="45.99553" lon="7.70383">
        <ele>2520.9</ele>
        <time>2011-08-31T21:46:37Z</time>
      </trkpt>
      <trkpt lat="45.996" lon="7.70364">
        <ele>2517.6</ele>
        <time>2011-08-31T21:46:57Z</time>
      </trkpt>
      <trkpt lat="45.99607" lon="7.70355">
        <ele>2516.7</ele>
        <time>2011-08-31T21:47:00Z</time>
      </trkpt>
      <trkpt lat="45.99686" lon="7.70022">
        <ele>2479.7</ele>
        <time>2011-08-31T21:48:39Z</time>
      </trkpt>
      <trkpt lat="45.99732" lon="7.69878">
        <ele>2457.6</ele>
        <time>2011-08-31T21:49:23Z</time>
      </trkpt>
      <trkpt lat="45.99818" lon="7.69909">
        <ele>2446.2</ele>
        <time>2011-08-31T21:50:02Z</time>
      </trkpt>
      <trkpt lat="45.99823" lon="7.6991">
        <ele>2445</ele>
        <time>2011-08-31T21:50:04Z</time>
      </trkpt>
      <trkpt lat="45.9987" lon="7.69851">
        <ele>2441.3</ele>
        <time>2011-08-31T21:50:29Z</time>
      </trkpt>
      <trkpt lat="45.99895" lon="7.69814">
        <ele>2436.3</ele>
        <time>2011-08-31T21:50:44Z</time>
      </trkpt>
      <trkpt lat="45.99923" lon="7.69722">
        <ele>2430.7</ele>
        <time>2011-08-31T21:51:11Z</time>
      </trkpt>
      <trkpt lat="45.99937" lon="7.69712">
        <ele>2428.4</ele>
        <time>2011-08-31T21:51:18Z</time>
      </trkpt>
      <trkpt lat="45.99943" lon="7.69652">
        <ele>2427.7</ele>
        <time>2011-08-31T21:51:36Z</time>
      </trkpt>
      <trkpt lat="45.99913" lon="7.69578">
        <ele>2420.8</ele>
        <time>2011-08-31T21:52:00Z</time>
      </trkpt>
      <trkpt lat="45.99905" lon="7.69485">
        <ele>2416.4</ele>
        <time>2011-08-31T21:52:26Z</time>
      </trkpt>
      <trkpt lat="45.99871" lon="7.6941">
        <ele>2413.9</ele>
        <time>2011-08-31T21:52:53Z</time>
      </trkpt>
      <trkpt lat="45.99851" lon="7.69422">
        <ele>2411.1</ele>
        <time>2011-08-31T21:53:04Z</time>
      </trkpt>
      <trkpt lat="45.99837" lon="7.69393">
        <ele>2409.1</ele>
        <time>2011-08-31T21:53:14Z</time>
      </trkpt>
      <trkpt lat="45.99858" lon="7.6935">
        <ele>2405.1</ele>
        <time>2011-08-31T21:53:29Z</time>
      </trkpt>
      <trkpt lat="45.99902" lon="7.69316">
        <ele>2397.9</ele>
        <time>2011-08-31T21:53:49Z</time>
      </trkpt>
      <trkpt lat="45.99937" lon="7.69289">
        <ele>2390.1</ele>
        <time>2011-08-31T21:54:05Z</time>
      </trkpt>
      <trkpt lat="45.99982" lon="7.69192">
        <ele>2378</ele>
        <time>2011-08-31T21:54:40Z</time>
      </trkpt>
      <trkpt lat="45.99991" lon="7.69096">
        <ele>2369.5</ele>
        <time>2011-08-31T21:55:08Z</time>
      </trkpt>
      <trkpt lat="45.99993" lon="7.69085">
        <ele>2366.5</ele>
        <time>2011-08-31T21:55:11Z</time>
      </trkpt>
      <trkpt lat="46.0003" lon="7.69028">
        <ele>2364.1</ele>
        <time>2011-08-31T21:55:34Z</time>
      </trkpt>
      <trkpt lat="46.00049" lon="7.68925">
        <ele>2356.6</ele>
        <time>2011-08-31T21:56:04Z</time>
      </trkpt>
      <trkpt lat="46.00067" lon="7.68897">
        <ele>2356.1</ele>
        <time>2011-08-31T21:56:15Z</time>
      </trkpt>
      <trkpt lat="46.00047" lon="7.68715">
        <ele>2350.3</ele>
        <time>2011-08-31T21:57:08Z</time>
      </trkpt>
      <trkpt lat="46.0006" lon="7.68689">
        <ele>2346.6</ele>
        <time>2011-08-31T21:57:17Z</time>
      </trkpt>
      <trkpt lat="46.00061" lon="7.68702">
        <ele>2342.6</ele>
        <time>2011-08-31T21:57:21Z</time>
      </trkpt>
      <trkpt lat="46.00053" lon="7.68675">
        <ele>2340.9</ele>
        <time>2011-08-31T21:57:29Z</time>
      </trkpt>
      <trkpt lat="46.00064" lon="7.68645">
        <ele>2333.6</ele>
        <time>2011-08-31T21:57:39Z</time>
      </trkpt>
      <trkpt lat="46.00079" lon="7.68637">
        <ele>2330.9</ele>
        <time>2011-08-31T21:57:46Z</time>
      </trkpt>
      <trkpt lat="46.00103" lon="7.68634">
        <ele>2321.4</ele>
        <time>2011-08-31T21:57:55Z</time>
      </trkpt>
      <trkpt lat="46.00117" lon="7.68621">
        <ele>2318.5</ele>
        <time>2011-08-31T21:58:02Z</time>
      </trkpt>
      <trkpt lat="46.00141" lon="7.68591">
        <ele>2310</ele>
        <time>2011-08-31T21:58:16Z</time>
      </trkpt>
      <trkpt lat="46.0016" lon="7.68531">
        <ele>2298.3</ele>
        <time>2011-08-31T21:58:36Z</time>
      </trkpt>
      <trkpt lat="46.00201" lon="7.68511">
        <ele>2289.4</ele>
        <time>2011-08-31T21:58:54Z</time>
      </trkpt>
      <trkpt lat="46.00213" lon="7.68495">
        <ele>2283.9</ele>
        <time>2011-08-31T21:59:01Z</time>
      </trkpt>
      <trkpt lat="46.00238" lon="7.68519">
        <ele>2279.4</ele>
        <time>2011-08-31T21:59:13Z</time>
      </trkpt>
      <trkpt lat="46.00278" lon="7.68517">
        <ele>2268.5</ele>
        <time>2011-08-31T21:59:30Z</time>
      </trkpt>
      <trkpt lat="46.00329" lon="7.68569">
        <ele>2259.8</ele>
        <time>2011-08-31T21:59:55Z</time>
      </trkpt>
      <trkpt lat="46.0036" lon="7.68642">
        <ele>2247.7</ele>
        <time>2011-08-31T22:00:19Z</time>
      </trkpt>
      <trkpt lat="46.00412" lon="7.68685">
        <ele>2240.1</ele>
        <time>2011-08-31T22:00:44Z</time>
      </trkpt>
      <trkpt lat="46.00435" lon="7.68755">
        <ele>2235.3</ele>
        <time>2011-08-31T22:01:06Z</time>
      </trkpt>
      <trkpt lat="46.00451" lon="7.68757">
        <ele>2233</ele>
        <time>2011-08-31T22:01:12Z</time>
      </trkpt>
      <trkpt lat="46.00452" lon="7.68803">
        <ele>2230.8</ele>
        <time>2011-08-31T22:01:26Z</time>
      </trkpt>
      <trkpt lat="46.00459" lon="7.6881">
        <ele>2229.4</ele>
        <time>2011-08-31T22:01:29Z</time>
      </trkpt>
      <trkpt lat="46.00474" lon="7.68902">
        <ele>2210.1</ele>
        <time>2011-08-31T22:01:56Z</time>
      </trkpt>
      <trkpt lat="46.00512" lon="7.6896">
        <ele>2200.4</ele>
        <time>2011-08-31T22:02:23Z</time>
      </trkpt>
      <trkpt lat="46.00563" lon="7.69005">
        <ele>2184.7</ele>
        <time>2011-08-31T22:02:48Z</time>
      </trkpt>
      <trkpt lat="46.00586" lon="7.69012">
        <ele>2175.3</ele>
        <time>2011-08-31T22:02:57Z</time>
      </trkpt>
      <trkpt lat="46.00626" lon="7.69073">
        <ele>2160.9</ele>
        <time>2011-08-31T22:03:21Z</time>
      </trkpt>
      <trkpt lat="46.00632" lon="7.69104">
        <ele>2159.3</ele>
        <time>2011-08-31T22:03:30Z</time>
      </trkpt>
      <trkpt lat="46.00635" lon="7.69091">
        <ele>2153.8</ele>
        <time>2011-08-31T22:03:34Z</time>
      </trkpt>
      <trkpt lat="46.00642" lon="7.6911">
        <ele>2151.9</ele>
        <time>2011-08-31T22:03:40Z</time>
      </trkpt>
      <trkpt lat="46.00645" lon="7.69134">
        <ele>2150.5</ele>
        <time>2011-08-31T22:03:47Z</time>
      </trkpt>
      <trkpt lat="46.00643" lon="7.69228">
        <ele>2146.3</ele>
        <time>2011-08-31T22:04:13Z</time>
      </trkpt>
      <trkpt lat="46.00635" lon="7.69307">
        <ele>2139</ele>
        <time>2011-08-31T22:04:35Z</time>
      </trkpt>
      <trkpt lat="46.00634" lon="7.69344">
        <ele>2138.4</ele>
        <time>2011-08-31T22:04:45Z</time>
      </trkpt>
      <trkpt lat="46.00634" lon="7.69411">
        <ele>2132.1</ele>
        <time>2011-08-31T22:05:04Z</time>
      </trkpt>
      <trkpt lat="46.00654" lon="7.695">
        <ele>2126</ele>
        <time>2011-08-31T22:05:31Z</time>
      </trkpt>
      <trkpt lat="46.00646" lon="7.69595">
        <ele>2123.5</ele>
        <time>2011-08-31T22:05:57Z</time>
      </trkpt>
      <trkpt lat="46.00684" lon="7.69741">
        <ele>2117.9</ele>
        <time>2011-08-31T22:06:41Z</time>
      </trkpt>
      <trkpt lat="46.00739" lon="7.69916">
        <ele>2101.7</ele>
        <time>2011-08-31T22:07:35Z</time>
      </trkpt>
      <trkpt lat="46.00745" lon="7.69967">
        <ele>2096.9</ele>
        <time>2011-08-31T22:07:50Z</time>
      </trkpt>
      <trkpt lat="46.00727" lon="7.70204">
        <ele>2078.8</ele>
        <time>2011-08-31T22:08:57Z</time>
      </trkpt>
      <trkpt lat="46.00699" lon="7.70314">
        <ele>2074.6</ele>
        <time>2011-08-31T22:09:30Z</time>
      </trkpt>
      <trkpt lat="46.00699" lon="7.70337">
        <ele>2072.9</ele>
        <time>2011-08-31T22:09:37Z</time>
      </trkpt>
      <trkpt lat="46.00744" lon="7.70434">
        <ele>2065.2</ele>
        <time>2011-08-31T22:10:10Z</time>
      </trkpt>
      <trkpt lat="46.00746" lon="7.70447">
        <ele>2060.5</ele>
        <time>2011-08-31T22:10:13Z</time>
      </trkpt>
      <trkpt lat="46.00732" lon="7.70473">
        <ele>2060.5</ele>
        <time>2011-08-31T22:10:23Z</time>
      </trkpt>
      <trkpt lat="46.00677" lon="7.70633">
        <ele>2046.3</ele>
        <time>2011-08-31T22:11:13Z</time>
      </trkpt>
      <trkpt lat="46.00689" lon="7.70752">
        <ele>2039</ele>
        <time>2011-08-31T22:11:48Z</time>
      </trkpt>
      <trkpt lat="46.00687" lon="7.70779">
        <ele>2036.3</ele>
        <time>2011-08-31T22:11:56Z</time>
      </trkpt>
      <trkpt lat="46.00721" lon="7.70914">
        <ele>2026.2</ele>
        <time>2011-08-31T22:12:36Z</time>
      </trkpt>
      <trkpt lat="46.0072" lon="7.71106">
        <ele>2016.5</ele>
        <time>2011-08-31T22:13:30Z</time>
      </trkpt>
      <trkpt lat="46.00702" lon="7.71122">
        <ele>2014.9</ele>
        <time>2011-08-31T22:13:38Z</time>
      </trkpt>
      <trkpt lat="46.00691" lon="7.71177">
        <ele>2011.2</ele>
        <time>2011-08-31T22:13:55Z</time>
      </trkpt>
      <trkpt lat="46.00679" lon="7.71242">
        <ele>2005.8</ele>
        <time>2011-08-31T22:14:13Z</time>
      </trkpt>
      <trkpt lat="46.00608" lon="7.71295">
        <ele>1999.8</ele>
        <time>2011-08-31T22:14:46Z</time>
      </trkpt>
      <trkpt lat="46.00547" lon="7.71413">
        <ele>1996.7</ele>
        <time>2011-08-31T22:15:27Z</time>
      </trkpt>
      <trkpt lat="46.00576" lon="7.71396">
        <ele>1994.6</ele>
        <time>2011-08-31T22:15:39Z</time>
      </trkpt>
      <trkpt lat="46.0061" lon="7.7137">
        <ele>1987.1</ele>
        <time>2011-08-31T22:15:55Z</time>
      </trkpt>
      <trkpt lat="46.0064" lon="7.71352">
        <ele>1980.3</ele>
        <time>2011-08-31T22:16:08Z</time>
      </trkpt>
      <trkpt lat="46.00632" lon="7.71405">
        <ele>1971.3</ele>
        <time>2011-08-31T22:16:24Z</time>
      </trkpt>
      <trkpt lat="46.00652" lon="7.71428">
        <ele>1968.9</ele>
        <time>2011-08-31T22:16:34Z</time>
      </trkpt>
      <trkpt lat="46.00629" lon="7.7158">
        <ele>1976</ele>
        <time>2011-08-31T22:17:17Z</time>
      </trkpt>
      <trkpt lat="46.00651" lon="7.71684">
        <ele>1984.4</ele>
        <time>2011-08-31T22:17:48Z</time>
      </trkpt>
      <trkpt lat="46.00672" lon="7.71715">
        <ele>1987.3</ele>
        <time>2011-08-31T22:18:01Z</time>
      </trkpt>
      <trkpt lat="46.00669" lon="7.71992">
        <ele>1982.1</ele>
        <time>2011-08-31T22:19:19Z</time>
      </trkpt>
      <trkpt lat="46.00637" lon="7.7208">
        <ele>1964.8</ele>
        <time>2011-08-31T22:19:46Z</time>
      </trkpt>
      <trkpt lat="46.00646" lon="7.72184">
        <ele>1957.9</ele>
        <time>2011-08-31T22:20:16Z</time>
      </trkpt>
      <trkpt lat="46.00649" lon="7.72227">
        <ele>1952.9</ele>
        <time>2011-08-31T22:20:28Z</time>
      </trkpt>
      <trkpt lat="46.00632" lon="7.72269">
        <ele>1947.4</ele>
        <time>2011-08-31T22:20:42Z</time>
      </trkpt>
      <trkpt lat="46.00613" lon="7.72286">
        <ele>1946.1</ele>
        <time>2011-08-31T22:20:51Z</time>
      </trkpt>
      <trkpt lat="46.00605" lon="7.72292">
        <ele>1944.7</ele>
        <time>2011-08-31T22:20:54Z</time>
      </trkpt>
      <trkpt lat="46.00573" lon="7.72306">
        <ele>1938.7</ele>
        <time>2011-08-31T22:21:08Z</time>
      </trkpt>
      <trkpt lat="46.00569" lon="7.72243">
        <ele>1929.4</ele>
        <time>2011-08-31T22:21:26Z</time>
      </trkpt>
      <trkpt lat="46.00551" lon="7.72281">
        <ele>1923.1</ele>
        <time>2011-08-31T22:21:39Z</time>
      </trkpt>
      <trkpt lat="46.00559" lon="7.7239">
        <ele>1905.2</ele>
        <time>2011-08-31T22:22:09Z</time>
      </trkpt>
      <trkpt lat="46.00609" lon="7.72517">
        <ele>1891.1</ele>
        <time>2011-08-31T22:22:51Z</time>
      </trkpt>
    </trkseg>
  </trk>
</gpx>